NOAA Web Site Link Tides and Currents Home Page Transparent placeholder image

PORTS® Data Listing: 8638901 CBBT, Chesapeake Channel, VA

CO-OPS RAW PORTS DATA

************************      PRELIMINARY DATA      ************************** 

     THIS RAW DATA HAS NOT BEEN SUBJECT TO THE NATIONAL OCEAN SERVICE'S        
     QUALITY CONTROL OR QUALITY ASSURANCE PROCEDURES AND DOES NOT MEET         
     THE CRITERIA AND STANDARDS OF OFFICIAL NATIONAL OCEAN SERVICE             
     DATA.  IT IS RELEASED FOR LIMITED PUBLIC USE AS PRELIMINARY DATA TO       
     BE USED ONLY WITH APPROPRIATE CAUTION.                                    

************************      PRELIMINARY DATA      ************************** 


       CD   -   Calendar date
       T    -   Time
       TZ   -   Timezone
       PW   -   Predicted water level (feet above MLLW)
       OW   -   Observed water level (feet above MLLW)
       WS   -   Wind speed (knots)
       WD   -   Wind direction (degrees true)
       WG   -   Wind gust (knots)
       AT   -   Air temperature (degrees farenheit)
       WT   -   Water temperature (degrees farenheit)
       AP   -   Air pressure (millibars)
       SA   -   Salinty (PSU - Practical Salinity Units)
       SG   -   Specific gravity
       RH   -   Relative humidity
       AG   -   Air gap (feet)
       VI   -   Visibility (nautical miles)

       ** NOTE **
       A variable that has its data fields filled with "9"s, indicates that
       data was not collected for that sample period.
       **********

NOTICE OF PROVISIONAL DATUM
These datums and any data referred to said datum are PROVISIONAL and
subject to revision until they have been thoroughly reviewed and received final
approval.  Subsequent review based on field inspections and additional
measurements may result in revisions to the data and datums.  Data users are
cautioned to consider the conditional nature of this information before using
it for critical decisions such as those that concern physical or public safety.
Only after meeting all standards for quality control assurance will the datums
be classified as Accepted Datums.

STATION NAME: CBBT, Chesapeake Channel (8638901)
****************************************************************************************************
    CD       T    TZ    PW     OW    WS   WD   WG    AT    WT    AP    SA    SG     RH    AG   VI
****************************************************************************************************
2018/09/15 11:06 EDT    2.34   3.78   16   81   21  78.1 -99.9 1017.3 -9.9 -9.999 -99.9 -99.99 -9.99
2018/09/15 11:12 EDT    2.41   3.84   18   82   22  77.9 -99.9 1017.4 -9.9 -9.999 -99.9 -99.99 -9.99
2018/09/15 11:18 EDT    2.46   3.91   16   82   22  78.1 -99.9 1017.4 -9.9 -9.999 -99.9 -99.99 -9.99
2018/09/15 11:24 EDT    2.52   3.92   16   80   21  78.1 -99.9 1017.4 -9.9 -9.999 -99.9 -99.99 -9.99
2018/09/15 11:30 EDT    2.58   3.92   17   83   22  78.3 -99.9 1017.5 -9.9 -9.999 -99.9 -99.99 -9.99
2018/09/15 11:36 EDT    2.63   4.05   17   85   23  78.3 -99.9 1017.5 -9.9 -9.999 -99.9 -99.99 -9.99
2018/09/15 11:42 EDT    2.68   4.18   18   90   21  78.4 -99.9 1017.6 -9.9 -9.999 -99.9 -99.99 -9.99
2018/09/15 11:48 EDT    2.73   4.18   16   85   20  78.6 -99.9 1017.6 -9.9 -9.999 -99.9 -99.99 -9.99
2018/09/15 11:54 EDT    2.78   4.20   18   89   21  78.6 -99.9 1017.5 -9.9 -9.999 -99.9 -99.99 -9.99
2018/09/15 12:00 EDT    2.82   4.28   17   87   22  78.4 -99.9 1017.5 -9.9 -9.999 -99.9 -99.99 -9.99
2018/09/15 12:06 EDT    2.86   4.30   17   86   20  78.4 -99.9 1017.4 -9.9 -9.999 -99.9 -99.99 -9.99
2018/09/15 12:12 EDT    2.90   4.26   17   86   22  78.6 -99.9 1017.4 -9.9 -9.999 -99.9 -99.99 -9.99
2018/09/15 12:18 EDT    2.93   4.41   20   85   22  78.6 -99.9 1017.3 -9.9 -9.999 -99.9 -99.99 -9.99
2018/09/15 12:24 EDT    2.96   4.32   17   85   23  78.8 -99.9 1017.3 -9.9 -9.999 -99.9 -99.99 -9.99
2018/09/15 12:30 EDT    2.99   4.40   17   83   22  78.8 -99.9 1017.3 -9.9 -9.999 -99.9 -99.99 -9.99
2018/09/15 12:36 EDT    3.02   4.42   17   83   21  78.8 -99.9 1017.3 -9.9 -9.999 -99.9 -99.99 -9.99
2018/09/15 12:42 EDT    3.04   4.36   14   80   23  78.6 -99.9 1017.3 -9.9 -9.999 -99.9 -99.99 -9.99
2018/09/15 12:48 EDT    3.06   4.46   15   80   21  78.4 -99.9 1017.3 -9.9 -9.999 -99.9 -99.99 -9.99
2018/09/15 12:54 EDT    3.07   4.39   16   80   20  78.6 -99.9 1017.3 -9.9 -9.999 -99.9 -99.99 -9.99
2018/09/15 13:00 EDT    3.09   4.38   16   81   21  78.6 -99.9 1017.3 -9.9 -9.999 -99.9 -99.99 -9.99
2018/09/15 13:06 EDT    3.10   4.45   15   79   20  78.6 -99.9 1017.2 -9.9 -9.999 -99.9 -99.99 -9.99
2018/09/15 13:12 EDT    3.10   4.42   16   82   22  78.4 -99.9 1017.1 -9.9 -9.999 -99.9 -99.99 -9.99
2018/09/15 13:18 EDT    3.11   4.42   17   82   21  78.4 -99.9 1017.2 -9.9 -9.999 -99.9 -99.99 -9.99
2018/09/15 13:24 EDT    3.11   4.53   19   83   24  78.3 -99.9 1017.1 -9.9 -9.999 -99.9 -99.99 -9.99
2018/09/15 13:30 EDT    3.11   4.48   18   82   23  78.3 -99.9 1017.2 -9.9 -9.999 -99.9 -99.99 -9.99
2018/09/15 13:36 EDT    3.10   4.50   18   85   23  78.3 -99.9 1017.2 -9.9 -9.999 -99.9 -99.99 -9.99
2018/09/15 13:42 EDT    3.10   4.46   18   84   22  78.4 -99.9 1017.2 -9.9 -9.999 -99.9 -99.99 -9.99
2018/09/15 13:48 EDT    3.09   4.40   18   84   23  78.4 -99.9 1017.2 -9.9 -9.999 -99.9 -99.99 -9.99
2018/09/15 13:54 EDT    3.08   4.39   17   84   22  78.4 -99.9 1017.1 -9.9 -9.999 -99.9 -99.99 -9.99
2018/09/15 14:00 EDT    3.06   4.34   16   83   20  78.4 -99.9 1017.1 -9.9 -9.999 -99.9 -99.99 -9.99
2018/09/15 14:06 EDT    3.05   4.30   16   80   21  78.4 -99.9 1017.1 -9.9 -9.999 -99.9 -99.99 -9.99
2018/09/15 14:12 EDT    3.03   4.34   16   80   19  78.4 -99.9 1017.0 -9.9 -9.999 -99.9 -99.99 -9.99
2018/09/15 14:18 EDT    3.01   4.32   14   79   21  78.3 -99.9 1017.0 -9.9 -9.999 -99.9 -99.99 -9.99
2018/09/15 14:24 EDT    2.99   4.33   16   78   21  78.1 -99.9 1017.0 -9.9 -9.999 -99.9 -99.99 -9.99
2018/09/15 14:30 EDT    2.96   4.30   16   77   21  78.3 -99.9 1017.0 -9.9 -9.999 -99.9 -99.99 -9.99
2018/09/15 14:36 EDT    2.94   4.29   16   80   23  78.3 -99.9 1017.0 -9.9 -9.999 -99.9 -99.99 -9.99
2018/09/15 14:42 EDT    2.91   4.23   15   80   22  78.3 -99.9 1016.9 -9.9 -9.999 -99.9 -99.99 -9.99
2018/09/15 14:48 EDT    2.88   4.27   17   82   22  78.1 -99.9 1016.9 -9.9 -9.999 -99.9 -99.99 -9.99
2018/09/15 14:54 EDT    2.84   4.26   16   78   24  78.3 -99.9 1016.8 -9.9 -9.999 -99.9 -99.99 -9.99
2018/09/15 15:00 EDT    2.81   4.21   15   81   23  78.1 -99.9 1016.8 -9.9 -9.999 -99.9 -99.99 -9.99
2018/09/15 15:06 EDT    2.77   4.20   16   78   23  78.1 -99.9 1016.8 -9.9 -9.999 -99.9 -99.99 -9.99
2018/09/15 15:12 EDT    2.73   4.16   17   80   22  78.1 -99.9 1016.8 -9.9 -9.999 -99.9 -99.99 -9.99
2018/09/15 15:18 EDT    2.68   4.11   17   82   23  78.1 -99.9 1016.9 -9.9 -9.999 -99.9 -99.99 -9.99
2018/09/15 15:24 EDT    2.64   4.12   18   82   23  78.1 -99.9 1016.8 -9.9 -9.999 -99.9 -99.99 -9.99
2018/09/15 15:30 EDT    2.59   4.11   17   81   23  78.1 -99.9 1016.8 -9.9 -9.999 -99.9 -99.99 -9.99
2018/09/15 15:36 EDT    2.54   4.02   17   78   21  78.1 -99.9 1016.8 -9.9 -9.999 -99.9 -99.99 -9.99
2018/09/15 15:42 EDT    2.49   3.97   17   79   23  78.1 -99.9 1016.8 -9.9 -9.999 -99.9 -99.99 -9.99
2018/09/15 15:48 EDT    2.44   3.88   17   76   21  78.1 -99.9 1016.7 -9.9 -9.999 -99.9 -99.99 -9.99
2018/09/15 15:54 EDT    2.38   3.82   17   77   20  78.1 -99.9 1016.7 -9.9 -9.999 -99.9 -99.99 -9.99
2018/09/15 16:00 EDT    2.32   3.79   17   80   22  78.1 -99.9 1016.8 -9.9 -9.999 -99.9 -99.99 -9.99
2018/09/15 16:06 EDT    2.26   3.71   17   82   21  78.1 -99.9 1016.8 -9.9 -9.999 -99.9 -99.99 -9.99
2018/09/15 16:12 EDT    2.20   3.70   17   79   23  78.1 -99.9 1016.9 -9.9 -9.999 -99.9 -99.99 -9.99
2018/09/15 16:18 EDT    2.14   3.61   18   75   24  77.9 -99.9 1016.8 -9.9 -9.999 -99.9 -99.99 -9.99
2018/09/15 16:24 EDT    2.08   3.48   16   78   26  77.9 -99.9 1016.9 -9.9 -9.999 -99.9 -99.99 -9.99
2018/09/15 16:30 EDT    2.02   3.46   15   80   23  78.1 -99.9 1016.9 -9.9 -9.999 -99.9 -99.99 -9.99
2018/09/15 16:36 EDT    1.95   3.39   17   76   23  77.9 -99.9 1016.8 -9.9 -9.999 -99.9 -99.99 -9.99
2018/09/15 16:42 EDT    1.89   3.31   16   76   24  78.1 -99.9 1016.9 -9.9 -9.999 -99.9 -99.99 -9.99
2018/09/15 16:48 EDT    1.82   3.31   16   77   22  77.9 -99.9 1016.8 -9.9 -9.999 -99.9 -99.99 -9.99
2018/09/15 16:54 EDT    1.76   3.22   16   78   21  77.9 -99.9 1016.9 -9.9 -9.999 -99.9 -99.99 -9.99
2018/09/15 17:00 EDT    1.70   3.18   15   78   23  77.9 -99.9 1016.8 -9.9 -9.999 -99.9 -99.99 -9.99
2018/09/15 17:06 EDT    1.63   3.12   17   77   24  77.7 -99.9 1016.9 -9.9 -9.999 -99.9 -99.99 -9.99
2018/09/15 17:12 EDT    1.57   3.14   15   78   23  77.9 -99.9 1016.9 -9.9 -9.999 -99.9 -99.99 -9.99
2018/09/15 17:18 EDT    1.51   2.96   17   79   22  77.7 -99.9 1016.9 -9.9 -9.999 -99.9 -99.99 -9.99
2018/09/15 17:24 EDT    1.45   2.91   16   79   21  77.7 -99.9 1017.0 -9.9 -9.999 -99.9 -99.99 -9.99
2018/09/15 17:30 EDT    1.39   2.93   17   78   24  77.7 -99.9 1017.0 -9.9 -9.999 -99.9 -99.99 -9.99
2018/09/15 17:36 EDT    1.33   2.88   15   76   21  77.7 -99.9 1016.9 -9.9 -9.999 -99.9 -99.99 -9.99
2018/09/15 17:42 EDT    1.28   2.76   17   79   23  77.7 -99.9 1016.9 -9.9 -9.999 -99.9 -99.99 -9.99
2018/09/15 17:48 EDT    1.22   2.78   16   76   22  77.5 -99.9 1016.9 -9.9 -9.999 -99.9 -99.99 -9.99
2018/09/15 17:54 EDT    1.17   2.65   16   80   23  77.5 -99.9 1016.9 -9.9 -9.999 -99.9 -99.99 -9.99
2018/09/15 18:00 EDT    1.12   2.63   16   74   22  77.5 -99.9 1017.0 -9.9 -9.999 -99.9 -99.99 -9.99
2018/09/15 18:06 EDT    1.07   2.65   21   74   24  77.4 -99.9 1017.0 -9.9 -9.999 -99.9 -99.99 -9.99
2018/09/15 18:12 EDT    1.02   2.50   17   72   23  77.4 -99.9 1017.1 -9.9 -9.999 -99.9 -99.99 -9.99
2018/09/15 18:18 EDT    0.98   2.55   20   71   23  77.2 -99.9 1017.1 -9.9 -9.999 -99.9 -99.99 -9.99
2018/09/15 18:24 EDT    0.94   2.54   20   70   24  77.4 -99.9 1017.1 -9.9 -9.999 -99.9 -99.99 -9.99
2018/09/15 18:30 EDT    0.90   2.52   19   75   25  77.2 -99.9 1017.2 -9.9 -9.999 -99.9 -99.99 -9.99
2018/09/15 18:36 EDT    0.86   2.51   20   72   25  77.0 -99.9 1017.2 -9.9 -9.999 -99.9 -99.99 -9.99
2018/09/15 18:42 EDT    0.83   2.52   20   73   24  77.0 -99.9 1017.3 -9.9 -9.999 -99.9 -99.99 -9.99
2018/09/15 18:48 EDT    0.80   2.43   18   71   24  77.0 -99.9 1017.3 -9.9 -9.999 -99.9 -99.99 -9.99
2018/09/15 18:54 EDT    0.77   2.41   16   75   22  77.0 -99.9 1017.3 -9.9 -9.999 -99.9 -99.99 -9.99
2018/09/15 19:00 EDT    0.74   2.40   19   73   24  76.6 -99.9 1017.1 -9.9 -9.999 -99.9 -99.99 -9.99
2018/09/15 19:06 EDT    0.72   2.47   18   71   24  76.6 -99.9 1017.2 -9.9 -9.999 -99.9 -99.99 -9.99
2018/09/15 19:12 EDT    0.70   2.41   22   70   25  76.5 -99.9 1017.1 -9.9 -9.999 -99.9 -99.99 -9.99
2018/09/15 19:18 EDT    0.68   2.30   22   68   26  76.3 -99.9 1017.1 -9.9 -9.999 -99.9 -99.99 -9.99
2018/09/15 19:24 EDT    0.67   2.38   20   70   26  76.3 -99.9 1017.1 -9.9 -9.999 -99.9 -99.99 -9.99
2018/09/15 19:30 EDT    0.65   2.26   23   68   25  76.3 -99.9 1017.0 -9.9 -9.999 -99.9 -99.99 -9.99
2018/09/15 19:36 EDT    0.64   2.32   22   69   25  76.3 -99.9 1017.1 -9.9 -9.999 -99.9 -99.99 -9.99
2018/09/15 19:42 EDT    0.64   2.22   23   67   27  76.1 -99.9 1017.1 -9.9 -9.999 -99.9 -99.99 -9.99
2018/09/15 19:48 EDT    0.63   2.31   21   69   26  76.1 -99.9 1017.3 -9.9 -9.999 -99.9 -99.99 -9.99
2018/09/15 19:54 EDT    0.63   2.26   21   69   24  76.1 -99.9 1017.4 -9.9 -9.999 -99.9 -99.99 -9.99
2018/09/15 20:00 EDT    0.63   2.23   20   71   24  76.1 -99.9 1017.4 -9.9 -9.999 -99.9 -99.99 -9.99
2018/09/15 20:06 EDT    0.63   2.22   21   70   27  76.3 -99.9 1017.5 -9.9 -9.999 -99.9 -99.99 -9.99
2018/09/15 20:12 EDT    0.64   2.19   21   70   26  75.9 -99.9 1017.4 -9.9 -9.999 -99.9 -99.99 -9.99
2018/09/15 20:18 EDT    0.65   2.19   21   69   26  76.1 -99.9 1017.4 -9.9 -9.999 -99.9 -99.99 -9.99
2018/09/15 20:24 EDT    0.66   2.20   22   67   25  75.9 -99.9 1017.5 -9.9 -9.999 -99.9 -99.99 -9.99
2018/09/15 20:30 EDT    0.68   2.18   20   71   25  75.9 -99.9 1017.6 -9.9 -9.999 -99.9 -99.99 -9.99
2018/09/15 20:36 EDT    0.69   2.26   22   69   25  75.9 -99.9 1017.6 -9.9 -9.999 -99.9 -99.99 -9.99
2018/09/15 20:42 EDT    0.72   2.19   22   68   28  75.9 -99.9 1017.6 -9.9 -9.999 -99.9 -99.99 -9.99
2018/09/15 20:48 EDT    0.74   2.20   20   71   25  75.7 -99.9 1017.7 -9.9 -9.999 -99.9 -99.99 -9.99
2018/09/15 20:54 EDT    0.76   2.20   22   68   26  75.7 -99.9 1017.6 -9.9 -9.999 -99.9 -99.99 -9.99
2018/09/15 21:00 EDT    0.79   2.27   23   67   26  75.6 -99.9 1017.6 -9.9 -9.999 -99.9 -99.99 -9.99
2018/09/15 21:06 EDT    0.82   2.31   22   66   26  75.7 -99.9 1017.6 -9.9 -9.999 -99.9 -99.99 -9.99
2018/09/15 21:12 EDT    0.86   2.29   22   69   25  75.6 -99.9 1017.7 -9.9 -9.999 -99.9 -99.99 -9.99
2018/09/15 21:18 EDT    0.89   2.36   21   70   26  75.6 -99.9 1017.6 -9.9 -9.999 -99.9 -99.99 -9.99
2018/09/15 21:24 EDT    0.93   2.45   22   68   25  75.4 -99.9 1017.8 -9.9 -9.999 -99.9 -99.99 -9.99
2018/09/15 21:30 EDT    0.97   2.46   21   68   26  75.4 -99.9 1017.7 -9.9 -9.999 -99.9 -99.99 -9.99
2018/09/15 21:36 EDT    1.01   2.51   21   72   26  75.4 -99.9 1017.8 -9.9 -9.999 -99.9 -99.99 -9.99
2018/09/15 21:42 EDT    1.05   2.46   20   74   26  75.4 -99.9 1017.8 -9.9 -9.999 -99.9 -99.99 -9.99
2018/09/15 21:48 EDT    1.10   2.55   20   71   24  75.4 -99.9 1017.8 -9.9 -9.999 -99.9 -99.99 -9.99
2018/09/15 21:54 EDT    1.14   2.50   20   71   24  75.4 -99.9 1017.9 -9.9 -9.999 -99.9 -99.99 -9.99
2018/09/15 22:00 EDT    1.19   2.54   21   69   24  75.4 -99.9 1017.8 -9.9 -9.999 -99.9 -99.99 -9.99
2018/09/15 22:06 EDT    1.24   2.71   21   67   25  75.4 -99.9 1017.8 -9.9 -9.999 -99.9 -99.99 -9.99
2018/09/15 22:12 EDT    1.29   2.64   23   65   25  75.2 -99.9 1017.7 -9.9 -9.999 -99.9 -99.99 -9.99
2018/09/15 22:18 EDT    1.34   2.70   20   67   26  75.2 -99.9 1017.8 -9.9 -9.999 -99.9 -99.99 -9.99
2018/09/15 22:24 EDT    1.40   2.82   19   71   25  75.4 -99.9 1017.8 -9.9 -9.999 -99.9 -99.99 -9.99
2018/09/15 22:30 EDT    1.45   2.85   21   70   24  75.2 -99.9 1017.7 -9.9 -9.999 -99.9 -99.99 -9.99
2018/09/15 22:36 EDT    1.50   2.89   23   68   25  75.2 -99.9 1017.7 -9.9 -9.999 -99.9 -99.99 -9.99
2018/09/15 22:42 EDT    1.56   2.94   19   71   25  75.4 -99.9 1017.7 -9.9 -9.999 -99.9 -99.99 -9.99
2018/09/15 22:48 EDT    1.61   3.01   20   69   26  75.6 -99.9 1017.9 -9.9 -9.999 -99.9 -99.99 -9.99
2018/09/15 22:54 EDT    1.67   3.08   21   69   24  75.6 -99.9 1017.8 -9.9 -9.999 -99.9 -99.99 -9.99
2018/09/15 23:00 EDT    1.72   3.05   18   74   23  75.6 -99.9 1017.8 -9.9 -9.999 -99.9 -99.99 -9.99
2018/09/15 23:06 EDT    1.77   3.16   18   74   23  75.7 -99.9 1017.8 -9.9 -9.999 -99.9 -99.99 -9.99
2018/09/15 23:12 EDT    1.83   3.32   17   71   23  75.7 -99.9 1017.7 -9.9 -9.999 -99.9 -99.99 -9.99
2018/09/15 23:18 EDT    1.88   3.34   17   72   23  75.9 -99.9 1017.6 -9.9 -9.999 -99.9 -99.99 -9.99
2018/09/15 23:24 EDT    1.93   3.44   17   73   22  75.9 -99.9 1017.5 -9.9 -9.999 -99.9 -99.99 -9.99
2018/09/15 23:30 EDT    1.98   3.50   18   74   23  76.1 -99.9 1017.6 -9.9 -9.999 -99.9 -99.99 -9.99
2018/09/15 23:36 EDT    2.03   3.51   15   76   22  76.1 -99.9 1017.7 -9.9 -9.999 -99.9 -99.99 -9.99
2018/09/15 23:42 EDT    2.08   3.57   16   74   22  75.9 -99.9 1017.6 -9.9 -9.999 -99.9 -99.99 -9.99
2018/09/15 23:48 EDT    2.13   3.59   13   75   22  76.1 -99.9 1017.7 -9.9 -9.999 -99.9 -99.99 -9.99
2018/09/15 23:54 EDT    2.18   3.65   17   72   21  75.9 -99.9 1017.8 -9.9 -9.999 -99.9 -99.99 -9.99
2018/09/16 00:00 EDT    2.22   3.66   18   71   21  75.9 -99.9 1017.7 -9.9 -9.999 -99.9 -99.99 -9.99
2018/09/16 00:06 EDT    2.26   3.69   19   71   22  75.7 -99.9 1017.6 -9.9 -9.999 -99.9 -99.99 -9.99
2018/09/16 00:12 EDT    2.30   3.72   17   72   22  75.7 -99.9 1017.7 -9.9 -9.999 -99.9 -99.99 -9.99
2018/09/16 00:18 EDT    2.34   3.76   17   74   22  75.7 -99.9 1017.8 -9.9 -9.999 -99.9 -99.99 -9.99
2018/09/16 00:24 EDT    2.37   3.82   15   74   20  75.9 -99.9 1017.8 -9.9 -9.999 -99.9 -99.99 -9.99
2018/09/16 00:30 EDT    2.41   3.82   15   76   19  76.1 -99.9 1017.8 -9.9 -9.999 -99.9 -99.99 -9.99
2018/09/16 00:36 EDT    2.44   3.85   15   75   19  76.1 -99.9 1017.9 -9.9 -9.999 -99.9 -99.99 -9.99
2018/09/16 00:42 EDT    2.46   3.82   15   77   21  76.1 -99.9 1017.8 -9.9 -9.999 -99.9 -99.99 -9.99
2018/09/16 00:48 EDT    2.49   3.84   15   80   21  76.1 -99.9 1017.8 -9.9 -9.999 -99.9 -99.99 -9.99
2018/09/16 00:54 EDT    2.51   3.94   15   81   20  76.1 -99.9 1017.7 -9.9 -9.999 -99.9 -99.99 -9.99
2018/09/16 01:00 EDT    2.53   3.94   16   81   21  76.1 -99.9 1017.6 -9.9 -9.999 -99.9 -99.99 -9.99
2018/09/16 01:06 EDT    2.55   4.04   15   82   20  76.5 -99.9 1017.6 -9.9 -9.999 -99.9 -99.99 -9.99
2018/09/16 01:12 EDT    2.56   3.96   13   81   21  76.5 -99.9 1017.5 -9.9 -9.999 -99.9 -99.99 -9.99
2018/09/16 01:18 EDT    2.58   4.00   15   82   19  76.1 -99.9 1017.5 -9.9 -9.999 -99.9 -99.99 -9.99
2018/09/16 01:24 EDT    2.59   3.97   16   84   19  76.5 -99.9 1017.6 -9.9 -9.999 -99.9 -99.99 -9.99
2018/09/16 01:30 EDT    2.59   3.98   15   83   19  76.5 -99.9 1017.5 -9.9 -9.999 -99.9 -99.99 -9.99
2018/09/16 01:36 EDT    2.60   3.99   13   78   19  76.6 -99.9 1017.4 -9.9 -9.999 -99.9 -99.99 -9.99
2018/09/16 01:42 EDT    2.60   3.98   14   79   19  76.6 -99.9 1017.4 -9.9 -9.999 -99.9 -99.99 -9.99
2018/09/16 01:48 EDT    2.60   3.98   13   80   18  76.5 -99.9 1017.3 -9.9 -9.999 -99.9 -99.99 -9.99
2018/09/16 01:54 EDT    2.60   3.97   14   80   19  76.5 -99.9 1017.4 -9.9 -9.999 -99.9 -99.99 -9.99
2018/09/16 02:00 EDT    2.60   3.85   15   84   18  76.6 -99.9 1017.4 -9.9 -9.999 -99.9 -99.99 -9.99
2018/09/16 02:06 EDT    2.59   3.81   14   86   18  76.6 -99.9 1017.3 -9.9 -9.999 -99.9 -99.99 -9.99
2018/09/16 02:12 EDT    2.59   3.84   14   87   17  76.8 -99.9 1017.3 -9.9 -9.999 -99.9 -99.99 -9.99
2018/09/16 02:18 EDT    2.58   3.81   15   82   18  76.8 -99.9 1017.3 -9.9 -9.999 -99.9 -99.99 -9.99
2018/09/16 02:24 EDT    2.57   3.77   13   89   17  76.8 -99.9 1017.3 -9.9 -9.999 -99.9 -99.99 -9.99
2018/09/16 02:30 EDT    2.55   3.75   15   86   17  76.8 -99.9 1017.3 -9.9 -9.999 -99.9 -99.99 -9.99
2018/09/16 02:36 EDT    2.54   3.74   16   90   19  76.6 -99.9 1017.2 -9.9 -9.999 -99.9 -99.99 -9.99
2018/09/16 02:42 EDT    2.52   3.76   14   92   17  76.8 -99.9 1017.3 -9.9 -9.999 -99.9 -99.99 -9.99
2018/09/16 02:48 EDT    2.50   3.68   13   89   18  77.0 -99.9 1017.2 -9.9 -9.999 -99.9 -99.99 -9.99
2018/09/16 02:54 EDT    2.48   3.65   15   84   17  76.8 -99.9 1017.2 -9.9 -9.999 -99.9 -99.99 -9.99
2018/09/16 03:00 EDT    2.46   3.60   15   84   17  76.8 -99.9 1017.1 -9.9 -9.999 -99.9 -99.99 -9.99
2018/09/16 03:06 EDT    2.43   3.63   15   87   18  76.6 -99.9 1017.1 -9.9 -9.999 -99.9 -99.99 -9.99
2018/09/16 03:12 EDT    2.41   3.55   15   88   17  76.6 -99.9 1017.1 -9.9 -9.999 -99.9 -99.99 -9.99
2018/09/16 03:18 EDT    2.38   3.51   13   83   18  76.6 -99.9 1017.2 -9.9 -9.999 -99.9 -99.99 -9.99
2018/09/16 03:24 EDT    2.35   3.49   14   86   16  76.5 -99.9 1017.1 -9.9 -9.999 -99.9 -99.99 -9.99
2018/09/16 03:30 EDT    2.32   3.48   13   86   17  76.6 -99.9 1017.1 -9.9 -9.999 -99.9 -99.99 -9.99
2018/09/16 03:36 EDT    2.28   3.47   14   85   17  76.6 -99.9 1017.1 -9.9 -9.999 -99.9 -99.99 -9.99
2018/09/16 03:42 EDT    2.25   3.44   15   85   17  76.5 -99.9 1017.2 -9.9 -9.999 -99.9 -99.99 -9.99
2018/09/16 03:48 EDT    2.21   3.39   14   84   17  76.6 -99.9 1017.2 -9.9 -9.999 -99.9 -99.99 -9.99
2018/09/16 03:54 EDT    2.17   3.35   15   86   18  76.5 -99.9 1017.2 -9.9 -9.999 -99.9 -99.99 -9.99
2018/09/16 04:00 EDT    2.13   3.31   15   88   19  76.6 -99.9 1017.2 -9.9 -9.999 -99.9 -99.99 -9.99
2018/09/16 04:06 EDT    2.09   3.31   16   87   19  76.6 -99.9 1017.1 -9.9 -9.999 -99.9 -99.99 -9.99
2018/09/16 04:12 EDT    2.04   3.30   15   92   18  76.6 -99.9 1017.1 -9.9 -9.999 -99.9 -99.99 -9.99
2018/09/16 04:18 EDT    1.99   3.22   16   90   19  76.6 -99.9 1017.1 -9.9 -9.999 -99.9 -99.99 -9.99
2018/09/16 04:24 EDT    1.95   3.18   15   93   19  76.8 -99.9 1017.0 -9.9 -9.999 -99.9 -99.99 -9.99
2018/09/16 04:30 EDT    1.90   3.09   16   91   19  76.6 -99.9 1016.9 -9.9 -9.999 -99.9 -99.99 -9.99
2018/09/16 04:36 EDT    1.85   3.10   16   92   19  76.6 -99.9 1016.9 -9.9 -9.999 -99.9 -99.99 -9.99
2018/09/16 04:42 EDT    1.79   3.05   16   94   18  76.8 -99.9 1016.9 -9.9 -9.999 -99.9 -99.99 -9.99
2018/09/16 04:48 EDT    1.74   2.99   15   92   18  77.0 -99.9 1016.9 -9.9 -9.999 -99.9 -99.99 -9.99
2018/09/16 04:54 EDT    1.69   2.89   14   92   17  77.2 -99.9 1016.9 -9.9 -9.999 -99.9 -99.99 -9.99
2018/09/16 05:00 EDT    1.64   2.91   14   95   18  77.2 -99.9 1016.9 -9.9 -9.999 -99.9 -99.99 -9.99
2018/09/16 05:06 EDT    1.58   2.87   15   87   19  77.2 -99.9 1016.9 -9.9 -9.999 -99.9 -99.99 -9.99
2018/09/16 05:12 EDT    1.53   2.78   14   86   18  77.2 -99.9 1017.0 -9.9 -9.999 -99.9 -99.99 -9.99
2018/09/16 05:18 EDT    1.47   2.72   15   85   18  77.0 -99.9 1016.9 -9.9 -9.999 -99.9 -99.99 -9.99
2018/09/16 05:24 EDT    1.42   2.68   14   87   20  77.2 -99.9 1017.0 -9.9 -9.999 -99.9 -99.99 -9.99
2018/09/16 05:30 EDT    1.37   2.65   16   86   19  77.0 -99.9 1017.2 -9.9 -9.999 -99.9 -99.99 -9.99
2018/09/16 05:36 EDT    1.32   2.61   16   87   19  77.0 -99.9 1017.2 -9.9 -9.999 -99.9 -99.99 -9.99
2018/09/16 05:42 EDT    1.27   2.59   14   86   18  77.0 -99.9 1017.2 -9.9 -9.999 -99.9 -99.99 -9.99
2018/09/16 05:48 EDT    1.22   2.52   16   95   19  77.2 -99.9 1017.2 -9.9 -9.999 -99.9 -99.99 -9.99
2018/09/16 05:54 EDT    1.17   2.49   14   93   20  77.2 -99.9 1017.2 -9.9 -9.999 -99.9 -99.99 -9.99
2018/09/16 06:00 EDT    1.12   2.46   15   90   19  77.2 -99.9 1017.3 -9.9 -9.999 -99.9 -99.99 -9.99
2018/09/16 06:06 EDT    1.08   2.39   16   91   20  77.2 -99.9 1017.3 -9.9 -9.999 -99.9 -99.99 -9.99
2018/09/16 06:12 EDT    1.03   2.29   17   91   21  77.4 -99.9 1017.3 -9.9 -9.999 -99.9 -99.99 -9.99
2018/09/16 06:18 EDT    0.99   2.25   16   86   20  77.2 -99.9 1017.2 -9.9 -9.999 -99.9 -99.99 -9.99
2018/09/16 06:24 EDT    0.95   2.29   16   85   20  77.2 -99.9 1017.1 -9.9 -9.999 -99.9 -99.99 -9.99
2018/09/16 06:30 EDT    0.91   2.18   17   84   19  77.2 -99.9 1017.2 -9.9 -9.999 -99.9 -99.99 -9.99
2018/09/16 06:36 EDT    0.88   2.19   17   84   21  77.2 -99.9 1017.2 -9.9 -9.999 -99.9 -99.99 -9.99
2018/09/16 06:42 EDT    0.84   2.15   15   87   20  77.4 -99.9 1017.4 -9.9 -9.999 -99.9 -99.99 -9.99
2018/09/16 06:48 EDT    0.81   2.04   15   83   19  77.4 -99.9 1017.5 -9.9 -9.999 -99.9 -99.99 -9.99
2018/09/16 06:54 EDT    0.78   2.06   16   85   21  77.4 -99.9 1017.5 -9.9 -9.999 -99.9 -99.99 -9.99
2018/09/16 07:00 EDT    0.76   2.07   14   82   18  77.4 -99.9 1017.5 -9.9 -9.999 -99.9 -99.99 -9.99
2018/09/16 07:06 EDT    0.73   1.99   17   84   20  77.4 -99.9 1017.5 -9.9 -9.999 -99.9 -99.99 -9.99
2018/09/16 07:12 EDT    0.71   1.99   15   81   19  77.5 -99.9 1017.5 -9.9 -9.999 -99.9 -99.99 -9.99
2018/09/16 07:18 EDT    0.69   1.94   16   83   20  77.5 -99.9 1017.6 -9.9 -9.999 -99.9 -99.99 -9.99
2018/09/16 07:24 EDT    0.67   1.93   15   83   19  77.5 -99.9 1017.7 -9.9 -9.999 -99.9 -99.99 -9.99
2018/09/16 07:30 EDT    0.66   1.92   16   88   20  77.5 -99.9 1017.8 -9.9 -9.999 -99.9 -99.99 -9.99
2018/09/16 07:36 EDT    0.65   1.90   16   91   22  77.5 -99.9 1017.9 -9.9 -9.999 -99.9 -99.99 -9.99
2018/09/16 07:42 EDT    0.64   1.85   18   93   21  77.5 -99.9 1018.0 -9.9 -9.999 -99.9 -99.99 -9.99
2018/09/16 07:48 EDT    0.63   1.84   16   94   19  77.5 -99.9 1018.0 -9.9 -9.999 -99.9 -99.99 -9.99
2018/09/16 07:54 EDT    0.63   1.84   18   95   21  77.7 -99.9 1018.1 -9.9 -9.999 -99.9 -99.99 -9.99
2018/09/16 08:00 EDT    0.63   1.85   16   88   19  77.5 -99.9 1018.0 -9.9 -9.999 -99.9 -99.99 -9.99
2018/09/16 08:06 EDT    0.63   1.86   15   91   20  77.7 -99.9 1018.1 -9.9 -9.999 -99.9 -99.99 -9.99
2018/09/16 08:12 EDT    0.63   1.84   17   88   19  77.5 -99.9 1018.0 -9.9 -9.999 -99.9 -99.99 -9.99
2018/09/16 08:18 EDT    0.64   1.88   15   90   18  77.5 -99.9 1018.0 -9.9 -9.999 -99.9 -99.99 -9.99
2018/09/16 08:24 EDT    0.65   1.84   15   90   19  77.5 -99.9 1018.2 -9.9 -9.999 -99.9 -99.99 -9.99
2018/09/16 08:30 EDT    0.66   1.85   17   88   20  77.5 -99.9 1018.2 -9.9 -9.999 -99.9 -99.99 -9.99
2018/09/16 08:36 EDT    0.67   1.83   15   91   19  77.5 -99.9 1018.3 -9.9 -9.999 -99.9 -99.99 -9.99
2018/09/16 08:42 EDT    0.69   1.86   15   89   19  77.7 -99.9 1018.4 -9.9 -9.999 -99.9 -99.99 -9.99
2018/09/16 08:48 EDT    0.71   1.85   15   88   18  77.7 -99.9 1018.4 -9.9 -9.999 -99.9 -99.99 -9.99
2018/09/16 08:54 EDT    0.73   1.85   16   89   19  77.7 -99.9 1018.4 -9.9 -9.999 -99.9 -99.99 -9.99
2018/09/16 09:00 EDT    0.76   1.87   16   91   21  77.7 -99.9 1018.5 -9.9 -9.999 -99.9 -99.99 -9.99
2018/09/16 09:06 EDT    0.79   1.96   18   88   20  77.5 -99.9 1018.6 -9.9 -9.999 -99.9 -99.99 -9.99
2018/09/16 09:12 EDT    0.82   1.96   16   89   21  77.5 -99.9 1018.6 -9.9 -9.999 -99.9 -99.99 -9.99
2018/09/16 09:18 EDT    0.85   2.02   17   89   21  77.5 -99.9 1018.7 -9.9 -9.999 -99.9 -99.99 -9.99
2018/09/16 09:24 EDT    0.89   2.04   16   92   19  77.7 -99.9 1018.8 -9.9 -9.999 -99.9 -99.99 -9.99
2018/09/16 09:30 EDT    0.93   2.12   17   87   21  77.7 -99.9 1018.9 -9.9 -9.999 -99.9 -99.99 -9.99
2018/09/16 09:36 EDT    0.97   2.17   16   86   20  77.7 -99.9 1019.0 -9.9 -9.999 -99.9 -99.99 -9.99
2018/09/16 09:42 EDT    1.01   2.20   17   90   20  77.9 -99.9 1019.0 -9.9 -9.999 -99.9 -99.99 -9.99
2018/09/16 09:48 EDT    1.05   2.22   16   89   19  77.7 -99.9 1019.1 -9.9 -9.999 -99.9 -99.99 -9.99
2018/09/16 09:54 EDT    1.10   2.27   15   89   19  77.9 -99.9 1019.1 -9.9 -9.999 -99.9 -99.99 -9.99
2018/09/16 10:00 EDT    1.15   2.30   17   89   20  77.9 -99.9 1019.1 -9.9 -9.999 -99.9 -99.99 -9.99
2018/09/16 10:06 EDT    1.20   2.37   17   90   22  78.1 -99.9 1019.2 -9.9 -9.999 -99.9 -99.99 -9.99
2018/09/16 10:12 EDT    1.25   2.42   18   90   21  77.9 -99.9 1019.3 -9.9 -9.999 -99.9 -99.99 -9.99
2018/09/16 10:18 EDT    1.30   2.44   18   89   21  78.1 -99.9 1019.3 -9.9 -9.999 -99.9 -99.99 -9.99
2018/09/16 10:24 EDT    1.36   2.56   17   89   20  78.1 -99.9 1019.3 -9.9 -9.999 -99.9 -99.99 -9.99
2018/09/16 10:30 EDT    1.41   2.62   18   87   20  78.1 -99.9 1019.3 -9.9 -9.999 -99.9 -99.99 -9.99
2018/09/16 10:36 EDT    1.47   2.65   16   85   21  78.3 -99.9 1019.3 -9.9 -9.999 -99.9 -99.99 -9.99
2018/09/16 10:42 EDT    1.52   2.73   17   84   21  78.3 -99.9 1019.3 -9.9 -9.999 -99.9 -99.99 -9.99
2018/09/16 10:48 EDT    1.58   2.74   18   88   21  78.3 -99.9 1019.3 -9.9 -9.999 -99.9 -99.99 -9.99
2018/09/16 10:54 EDT    1.64   2.78   18   89   21  78.3 -99.9 1019.3 -9.9 -9.999 -99.9 -99.99 -9.99
2018/09/16 11:00 EDT    1.70   2.89   18   87   22  78.3 -99.9 1019.2 -9.9 -9.999 -99.9 -99.99 -9.99
2018/09/16 11:06 EDT    1.76   2.86   18   89   23  78.4 -99.9 1019.2 -9.9 -9.999 -99.9 -99.99 -9.99
2018/09/16 11:12 EDT    1.82   2.97   18   91   20  78.4 -99.9 1019.3 -9.9 -9.999 -99.9 -99.99 -9.99
2018/09/16 11:18 EDT    1.88   3.04   18   90   22  78.4 -99.9 1019.3 -9.9 -9.999 -99.9 -99.99 -9.99
2018/09/16 11:24 EDT    1.94   3.10   17   93   21  78.4 -99.9 1019.3 -9.9 -9.999 -99.9 -99.99 -9.99
2018/09/16 11:30 EDT    2.00   3.13   17   94   23  78.4 -99.9 1019.3 -9.9 -9.999 -99.9 -99.99 -9.99
2018/09/16 11:36 EDT    2.06   3.27   17   97   21  78.8 -99.9 1019.3 -9.9 -9.999 -99.9 -99.99 -9.99
2018/09/16 11:42 EDT    2.11   3.26   18   99   22  78.8 -99.9 1019.3 -9.9 -9.999 -99.9 -99.99 -9.99
2018/09/16 11:48 EDT    2.17   3.31   16   97   22  78.8 -99.9 1019.4 -9.9 -9.999 -99.9 -99.99 -9.99
2018/09/16 11:54 EDT    2.23   3.34   18   97   22  78.6 -99.9 1019.4 -9.9 -9.999 -99.9 -99.99 -9.99
2018/09/16 12:00 EDT    2.28   3.39   18   91   22  78.6 -99.9 1019.4 -9.9 -9.999 -99.9 -99.99 -9.99
2018/09/16 12:06 EDT    2.33   3.51   17   93   23  78.6 -99.9 1019.4 -9.9 -9.999 -99.9 -99.99 -9.99
2018/09/16 12:12 EDT    2.39   3.63   17   93   22  79.0 -99.9 1019.3 -9.9 -9.999 -99.9 -99.99 -9.99
2018/09/16 12:18 EDT    2.44   3.69   19   97   23  78.6 -99.9 1019.4 -9.9 -9.999 -99.9 -99.99 -9.99
2018/09/16 12:24 EDT    2.48   3.74   19   95   23  78.6 -99.9 1019.4 -9.9 -9.999 -99.9 -99.99 -9.99
2018/09/16 12:30 EDT    2.53   3.77   19   96   23  78.6 -99.9 1019.4 -9.9 -9.999 -99.9 -99.99 -9.99
2018/09/16 12:36 EDT    2.57   3.80   17   98   22  78.8 -99.9 1019.4 -9.9 -9.999 -99.9 -99.99 -9.99
2018/09/16 12:42 EDT    2.62   3.81   18   97   22  78.8 -99.9 1019.3 -9.9 -9.999 -99.9 -99.99 -9.99
2018/09/16 12:48 EDT    2.66   3.90   18   99   21  78.6 -99.9 1019.3 -9.9 -9.999 -99.9 -99.99 -9.99
2018/09/16 12:54 EDT    2.69   3.97   17   97   20  78.8 -99.9 1019.4 -9.9 -9.999 -99.9 -99.99 -9.99
2018/09/16 13:00 EDT    2.73   4.05   17  101   23  78.8 -99.9 1019.3 -9.9 -9.999 -99.9 -99.99 -9.99
2018/09/16 13:06 EDT    2.76   4.06   17   96   21  78.6 -99.9 1019.3 -9.9 -9.999 -99.9 -99.99 -9.99
2018/09/16 13:12 EDT    2.79   3.98   17   96   20  78.6 -99.9 1019.3 -9.9 -9.999 -99.9 -99.99 -9.99
2018/09/16 13:18 EDT    2.82   4.04   18   97   21  78.8 -99.9 1019.2 -9.9 -9.999 -99.9 -99.99 -9.99
2018/09/16 13:24 EDT    2.84   4.00   16   96   20  79.0 -99.9 1019.2 -9.9 -9.999 -99.9 -99.99 -9.99
2018/09/16 13:30 EDT    2.87   4.12   17   98   20  79.0 -99.9 1019.2 -9.9 -9.999 -99.9 -99.99 -9.99
2018/09/16 13:36 EDT    2.89   4.04   18   96   22  79.0 -99.9 1019.1 -9.9 -9.999 -99.9 -99.99 -9.99
2018/09/16 13:42 EDT    2.90   4.11   18   97   21  79.0 -99.9 1019.1 -9.9 -9.999 -99.9 -99.99 -9.99
2018/09/16 13:48 EDT    2.92   4.13   18   98   21  79.2 -99.9 1019.0 -9.9 -9.999 -99.9 -99.99 -9.99
2018/09/16 13:54 EDT    2.93   4.09   16   99   20  79.2 -99.9 1018.9 -9.9 -9.999 -99.9 -99.99 -9.99
2018/09/16 14:00 EDT    2.94   4.17   17   99   21  79.2 -99.9 1018.8 -9.9 -9.999 -99.9 -99.99 -9.99
2018/09/16 14:06 EDT    2.95   4.19   17   97   20  79.0 -99.9 1018.7 -9.9 -9.999 -99.9 -99.99 -9.99
2018/09/16 14:12 EDT    2.95   4.13   17   96   21  79.0 -99.9 1018.6 -9.9 -9.999 -99.9 -99.99 -9.99
2018/09/16 14:18 EDT    2.96   4.08   18   98   22  78.8 -99.9 1018.6 -9.9 -9.999 -99.9 -99.99 -9.99
2018/09/16 14:24 EDT    2.96   4.19   18   98   22  78.8 -99.9 1018.6 -9.9 -9.999 -99.9 -99.99 -9.99
2018/09/16 14:30 EDT    2.96   4.11   17   97   19  79.0 -99.9 1018.5 -9.9 -9.999 -99.9 -99.99 -9.99
2018/09/16 14:36 EDT    2.95   4.05   18   98   21  78.8 -99.9 1018.5 -9.9 -9.999 -99.9 -99.99 -9.99
2018/09/16 14:42 EDT    2.95   4.07   17   97   21  78.8 -99.9 1018.5 -9.9 -9.999 -99.9 -99.99 -9.99
2018/09/16 14:48 EDT    2.94   4.04   18   97   21  79.0 -99.9 1018.5 -9.9 -9.999 -99.9 -99.99 -9.99
2018/09/16 14:54 EDT    2.93   4.02   16   97   21  79.2 -99.9 1018.4 -9.9 -9.999 -99.9 -99.99 -9.99
2018/09/16 15:00 EDT    2.92   3.98   16   92   20  78.8 -99.9 1018.3 -9.9 -9.999 -99.9 -99.99 -9.99
2018/09/16 15:06 EDT    2.90   3.93   18   96   21  78.8 -99.9 1018.3 -9.9 -9.999 -99.9 -99.99 -9.99
2018/09/16 15:12 EDT    2.89   3.89   17   98   20  79.0 -99.9 1018.3 -9.9 -9.999 -99.9 -99.99 -9.99
2018/09/16 15:18 EDT    2.87   3.92   17   95   20  79.2 -99.9 1018.2 -9.9 -9.999 -99.9 -99.99 -9.99
2018/09/16 15:24 EDT    2.85   3.94   17   94   20  79.2 -99.9 1018.2 -9.9 -9.999 -99.9 -99.99 -9.99
2018/09/16 15:30 EDT    2.83   3.90   17   96   21  79.2 -99.9 1018.1 -9.9 -9.999 -99.9 -99.99 -9.99
2018/09/16 15:36 EDT    2.81   3.91   16   97   20  79.2 -99.9 1018.1 -9.9 -9.999 -99.9 -99.99 -9.99
2018/09/16 15:42 EDT    2.78   3.87   17   97   21  79.0 -99.9 1018.0 -9.9 -9.999 -99.9 -99.99 -9.99
2018/09/16 15:48 EDT    2.75   3.83   18   92   22  78.8 -99.9 1017.9 -9.9 -9.999 -99.9 -99.99 -9.99
2018/09/16 15:54 EDT    2.72   3.75   18   94   20  78.8 -99.9 1017.9 -9.9 -9.999 -99.9 -99.99 -9.99
2018/09/16 16:00 EDT    2.69   3.75   17   93   21  78.8 -99.9 1017.9 -9.9 -9.999 -99.9 -99.99 -9.99
2018/09/16 16:06 EDT    2.66   3.74   18   98   21  78.8 -99.9 1017.9 -9.9 -9.999 -99.9 -99.99 -9.99
2018/09/16 16:12 EDT    2.62   3.76   15   95   19  79.0 -99.9 1017.9 -9.9 -9.999 -99.9 -99.99 -9.99
2018/09/16 16:18 EDT    2.58   3.69   16   94   19  79.0 -99.9 1017.9 -9.9 -9.999 -99.9 -99.99 -9.99
2018/09/16 16:24 EDT    2.54   3.59   17   96   19  78.8 -99.9 1017.9 -9.9 -9.999 -99.9 -99.99 -9.99
2018/09/16 16:30 EDT    2.50   3.66   17   96   19  78.8 -99.9 1017.9 -9.9 -9.999 -99.9 -99.99 -9.99
2018/09/16 16:36 EDT    2.45   3.63   16   95   19  79.0 -99.9 1017.9 -9.9 -9.999 -99.9 -99.99 -9.99
2018/09/16 16:42 EDT    2.40   3.62   16   93   19  78.8 -99.9 1017.8 -9.9 -9.999 -99.9 -99.99 -9.99
2018/09/16 16:48 EDT    2.36   3.51   16   97   20  79.0 -99.9 1017.8 -9.9 -9.999 -99.9 -99.99 -9.99
2018/09/16 16:54 EDT    2.31   3.46   16   96   20  79.0 -99.9 1017.8 -9.9 -9.999 -99.9 -99.99 -9.99
2018/09/16 17:00 EDT    2.25   3.45   16   97   20  79.0 -99.9 1017.8 -9.9 -9.999 -99.9 -99.99 -9.99
2018/09/16 17:06 EDT    2.20   3.36   15   96   20  79.0 -99.9 1017.8 -9.9 -9.999 -99.9 -99.99 -9.99
2018/09/16 17:12 EDT    2.15   3.28   16  100   20  79.0 -99.9 1017.8 -9.9 -9.999 -99.9 -99.99 -9.99
2018/09/16 17:18 EDT    2.09   3.20   14  100   18  79.0 -99.9 1017.9 -9.9 -9.999 -99.9 -99.99 -9.99
2018/09/16 17:24 EDT    2.04   3.10   14  101   17  78.8 -99.9 1017.9 -9.9 -9.999 -99.9 -99.99 -9.99
2018/09/16 17:30 EDT    1.98   3.08   14  100   18  79.0 -99.9 1017.9 -9.9 -9.999 -99.9 -99.99 -9.99
2018/09/16 17:36 EDT    1.92   3.06   14  101   18  79.0 -99.9 1018.0 -9.9 -9.999 -99.9 -99.99 -9.99
2018/09/16 17:42 EDT    1.87   3.02   14  101   17  78.8 -99.9 1018.1 -9.9 -9.999 -99.9 -99.99 -9.99
2018/09/16 17:48 EDT    1.81   2.93   14  101   18  78.8 -99.9 1018.2 -9.9 -9.999 -99.9 -99.99 -9.99
2018/09/16 17:54 EDT    1.75   2.86   14  100   18  78.8 -99.9 1018.2 -9.9 -9.999 -99.9 -99.99 -9.99
2018/09/16 18:00 EDT    1.70   2.82   15  103   19  78.6 -99.9 1018.2 -9.9 -9.999 -99.9 -99.99 -9.99
2018/09/16 18:06 EDT    1.64   2.74   16  106   19  78.6 -99.9 1018.2 -9.9 -9.999 -99.9 -99.99 -9.99
2018/09/16 18:12 EDT    1.59   2.70   14  102   18  78.6 -99.9 1018.3 -9.9 -9.999 -99.9 -99.99 -9.99
2018/09/16 18:18 EDT    1.53   2.64   15  104   18  78.6 -99.9 1018.3 -9.9 -9.999 -99.9 -99.99 -9.99
2018/09/16 18:24 EDT    1.48   2.56   13  104   17  78.8 -99.9 1018.3 -9.9 -9.999 -99.9 -99.99 -9.99
2018/09/16 18:30 EDT    1.43   2.55 -999 -999 -999 -99.9 -99.9 -999.9 -9.9 -9.999 -99.9 -99.99 -9.99
2018/09/16 18:36 EDT    1.38   2.52   16  106   19  78.8 -99.9 1018.2 -9.9 -9.999 -99.9 -99.99 -9.99
2018/09/16 18:42 EDT    1.33   2.49   13  101   19  78.8 -99.9 1018.2 -9.9 -9.999 -99.9 -99.99 -9.99
2018/09/16 18:48 EDT    1.28   2.43   11  102   17  78.8 -99.9 1018.2 -9.9 -9.999 -99.9 -99.99 -9.99
2018/09/16 18:54 EDT    1.24   2.39   15  103   18  78.6 -99.9 1018.1 -9.9 -9.999 -99.9 -99.99 -9.99
2018/09/16 19:00 EDT    1.19   2.33   13  102   17  78.6 -99.9 1018.1 -9.9 -9.999 -99.9 -99.99 -9.99
2018/09/16 19:06 EDT    1.15   2.32   14  103   18  78.8 -99.9 1018.1 -9.9 -9.999 -99.9 -99.99 -9.99
2018/09/16 19:12 EDT    1.11   2.29   16  107   19  78.8 -99.9 1018.1 -9.9 -9.999 -99.9 -99.99 -9.99
2018/09/16 19:18 EDT    1.07   2.19   17  107   20  79.0 -99.9 1018.1 -9.9 -9.999 -99.9 -99.99 -9.99
2018/09/16 19:24 EDT    1.03   2.19   15  112   19  79.0 -99.9 1018.2 -9.9 -9.999 -99.9 -99.99 -9.99
2018/09/16 19:30 EDT    1.00   2.13   14  109   20  79.0 -99.9 1018.3 -9.9 -9.999 -99.9 -99.99 -9.99
2018/09/16 19:36 EDT    0.96   2.12   16  114   18  79.0 -99.9 1018.2 -9.9 -9.999 -99.9 -99.99 -9.99
2018/09/16 19:42 EDT    0.93   2.04   14  112   20  79.0 -99.9 1018.3 -9.9 -9.999 -99.9 -99.99 -9.99
2018/09/16 19:48 EDT    0.91   2.03   15  109   19  79.0 -99.9 1018.4 -9.9 -9.999 -99.9 -99.99 -9.99
2018/09/16 19:54 EDT    0.88   1.93   15  113   18  79.0 -99.9 1018.4 -9.9 -9.999 -99.9 -99.99 -9.99
2018/09/16 20:00 EDT    0.86   1.99   14  111   18  79.0 -99.9 1018.4 -9.9 -9.999 -99.9 -99.99 -9.99
2018/09/16 20:06 EDT    0.84   1.95   16  112   19  79.0 -99.9 1018.4 -9.9 -9.999 -99.9 -99.99 -9.99
2018/09/16 20:12 EDT    0.82   1.92   16  109   19  79.0 -99.9 1018.5 -9.9 -9.999 -99.9 -99.99 -9.99
2018/09/16 20:18 EDT    0.80   1.84   16  111   20  79.0 -99.9 1018.5 -9.9 -9.999 -99.9 -99.99 -9.99
2018/09/16 20:24 EDT    0.79   1.86   15  110   18  79.0 -99.9 1018.6 -9.9 -9.999 -99.9 -99.99 -9.99
2018/09/16 20:30 EDT    0.77   1.86   15  111   20  79.0 -99.9 1018.7 -9.9 -9.999 -99.9 -99.99 -9.99
2018/09/16 20:36 EDT    0.76   1.81   15  110   20  79.0 -99.9 1018.7 -9.9 -9.999 -99.9 -99.99 -9.99
2018/09/16 20:42 EDT    0.76   1.79   14  108   18  79.0 -99.9 1018.7 -9.9 -9.999 -99.9 -99.99 -9.99
2018/09/16 20:48 EDT    0.75   1.84   15  107   18  78.8 -99.9 1018.7 -9.9 -9.999 -99.9 -99.99 -9.99
2018/09/16 20:54 EDT    0.75   1.81   15  105   19  79.0 -99.9 1018.7 -9.9 -9.999 -99.9 -99.99 -9.99
2018/09/16 21:00 EDT    0.75   1.76   15  109   19  79.0 -99.9 1018.7 -9.9 -9.999 -99.9 -99.99 -9.99
2018/09/16 21:06 EDT    0.76   1.81   14  108   18  79.0 -99.9 1018.8 -9.9 -9.999 -99.9 -99.99 -9.99
2018/09/16 21:12 EDT    0.77   1.82   15  108   18  79.0 -99.9 1018.8 -9.9 -9.999 -99.9 -99.99 -9.99
2018/09/16 21:18 EDT    0.77   1.80   15  108   18  79.0 -99.9 1018.8 -9.9 -9.999 -99.9 -99.99 -9.99
2018/09/16 21:24 EDT    0.79   1.79   15  107   18  78.8 -99.9 1018.8 -9.9 -9.999 -99.9 -99.99 -9.99
2018/09/16 21:30 EDT    0.80   1.80   14  106   19  78.6 -99.9 1018.7 -9.9 -9.999 -99.9 -99.99 -9.99
2018/09/16 21:36 EDT    0.82   1.82   17  110   18  78.6 -99.9 1018.7 -9.9 -9.999 -99.9 -99.99 -9.99
2018/09/16 21:42 EDT    0.84   1.79   17  110   20  78.8 -99.9 1018.7 -9.9 -9.999 -99.9 -99.99 -9.99
2018/09/16 21:48 EDT    0.86   1.84   15  108   18  78.6 -99.9 1018.7 -9.9 -9.999 -99.9 -99.99 -9.99
2018/09/16 21:54 EDT    0.88   1.84   15  105   19  78.4 -99.9 1018.6 -9.9 -9.999 -99.9 -99.99 -9.99
2018/09/16 22:00 EDT    0.91   1.84   14  103   18  78.4 -99.9 1018.6 -9.9 -9.999 -99.9 -99.99 -9.99
2018/09/16 22:06 EDT    0.94   1.82   15  106   17  78.4 -99.9 1018.6 -9.9 -9.999 -99.9 -99.99 -9.99
2018/09/16 22:12 EDT    0.97   1.88   15  106   18  78.4 -99.9 1018.6 -9.9 -9.999 -99.9 -99.99 -9.99
2018/09/16 22:18 EDT    1.00   1.89   16  107   19  78.3 -99.9 1018.5 -9.9 -9.999 -99.9 -99.99 -9.99
2018/09/16 22:24 EDT    1.03   1.92   17  108   20  78.3 -99.9 1018.6 -9.9 -9.999 -99.9 -99.99 -9.99
2018/09/16 22:30 EDT    1.07   1.97   14  105   19  78.4 -99.9 1018.6 -9.9 -9.999 -99.9 -99.99 -9.99
2018/09/16 22:36 EDT    1.11   2.00   15  105   18  78.3 -99.9 1018.6 -9.9 -9.999 -99.9 -99.99 -9.99
2018/09/16 22:42 EDT    1.15   2.06   17  107   20  78.3 -99.9 1018.6 -9.9 -9.999 -99.9 -99.99 -9.99
2018/09/16 22:48 EDT    1.19   2.06   15  104   19  78.3 -99.9 1018.6 -9.9 -9.999 -99.9 -99.99 -9.99
2018/09/16 22:54 EDT    1.23   2.15   15  107   19  78.3 -99.9 1018.7 -9.9 -9.999 -99.9 -99.99 -9.99
2018/09/16 23:00 EDT    1.27   2.18   16  111   19  78.3 -99.9 1018.6 -9.9 -9.999 -99.9 -99.99 -9.99
2018/09/16 23:06 EDT    1.32   2.25   16  109   19  78.3 -99.9 1018.5 -9.9 -9.999 -99.9 -99.99 -9.99
2018/09/16 23:12 EDT    1.36   2.26   16  109   19  78.3 -99.9 1018.4 -9.9 -9.999 -99.9 -99.99 -9.99
2018/09/16 23:18 EDT    1.41   2.32   16  111   18  78.3 -99.9 1018.4 -9.9 -9.999 -99.9 -99.99 -9.99
2018/09/16 23:24 EDT    1.45   2.38   15  107   20  78.4 -99.9 1018.3 -9.9 -9.999 -99.9 -99.99 -9.99
2018/09/16 23:30 EDT    1.50   2.40   15  115   19  78.4 -99.9 1018.4 -9.9 -9.999 -99.9 -99.99 -9.99
2018/09/16 23:36 EDT    1.55   2.49   15  115   18  78.4 -99.9 1018.5 -9.9 -9.999 -99.9 -99.99 -9.99
2018/09/16 23:42 EDT    1.59   2.52   15  113   18  78.3 -99.9 1018.6 -9.9 -9.999 -99.9 -99.99 -9.99
2018/09/16 23:48 EDT    1.64   2.58   14  117   19  78.4 -99.9 1018.6 -9.9 -9.999 -99.9 -99.99 -9.99
2018/09/16 23:54 EDT    1.69   2.62   14  122   17  78.4 -99.9 1018.6 -9.9 -9.999 -99.9 -99.99 -9.99
2018/09/17 00:00 EDT    1.73   2.66   16  119   18  78.4 -99.9 1018.5 -9.9 -9.999 -99.9 -99.99 -9.99
2018/09/17 00:06 EDT    1.78   2.72   14  114   20  78.6 -99.9 1018.5 -9.9 -9.999 -99.9 -99.99 -9.99
2018/09/17 00:12 EDT    1.82   2.73   14  118   17  78.6 -99.9 1018.5 -9.9 -9.999 -99.9 -99.99 -9.99
2018/09/17 00:18 EDT    1.87   2.81   14  123   17  78.8 -99.9 1018.5 -9.9 -9.999 -99.9 -99.99 -9.99
2018/09/17 00:24 EDT    1.91   2.87   15  120   17  78.8 -99.9 1018.4 -9.9 -9.999 -99.9 -99.99 -9.99
2018/09/17 00:30 EDT    1.96   2.89   14  124   18  78.8 -99.9 1018.3 -9.9 -9.999 -99.9 -99.99 -9.99
2018/09/17 00:36 EDT    2.00   2.96   13  125   16  78.6 -99.9 1018.3 -9.9 -9.999 -99.9 -99.99 -9.99
2018/09/17 00:42 EDT    2.04   3.02   16  129   19  78.6 -99.9 1018.3 -9.9 -9.999 -99.9 -99.99 -9.99
2018/09/17 00:48 EDT    2.08   3.06   14  127   18  78.6 -99.9 1018.2 -9.9 -9.999 -99.9 -99.99 -9.99
2018/09/17 00:54 EDT    2.12   3.08   15  125   18  78.8 -99.9 1018.1 -9.9 -9.999 -99.9 -99.99 -9.99
2018/09/17 01:00 EDT    2.16   3.19   15  127   18  78.8 -99.9 1018.0 -9.9 -9.999 -99.9 -99.99 -9.99
2018/09/17 01:06 EDT    2.19   3.14   16  127   19  78.8 -99.9 1018.0 -9.9 -9.999 -99.9 -99.99 -9.99
2018/09/17 01:12 EDT    2.22   3.21   15  122   18  78.8 -99.9 1018.0 -9.9 -9.999 -99.9 -99.99 -9.99
2018/09/17 01:18 EDT    2.26   3.20   14  125   17  78.8 -99.9 1018.0 -9.9 -9.999 -99.9 -99.99 -9.99
2018/09/17 01:24 EDT    2.28   3.25   14  121   17  78.8 -99.9 1018.0 -9.9 -9.999 -99.9 -99.99 -9.99
2018/09/17 01:30 EDT    2.31   3.26   14  124   16  78.8 -99.9 1018.0 -9.9 -9.999 -99.9 -99.99 -9.99
2018/09/17 01:36 EDT    2.34   3.30   14  120   17  78.8 -99.9 1017.9 -9.9 -9.999 -99.9 -99.99 -9.99
2018/09/17 01:42 EDT    2.36   3.29   14  121   17  78.8 -99.9 1017.8 -9.9 -9.999 -99.9 -99.99 -9.99
2018/09/17 01:48 EDT    2.38   3.30   14  122   17  78.8 -99.9 1017.8 -9.9 -9.999 -99.9 -99.99 -9.99
2018/09/17 01:54 EDT    2.40   3.43   14  121   17  78.8 -99.9 1017.7 -9.9 -9.999 -99.9 -99.99 -9.99
2018/09/17 02:00 EDT    2.42   3.34   14  121   17  78.8 -99.9 1017.8 -9.9 -9.999 -99.9 -99.99 -9.99
2018/09/17 02:06 EDT    2.43   3.32   15  121   19  79.0 -99.9 1017.8 -9.9 -9.999 -99.9 -99.99 -9.99
2018/09/17 02:12 EDT    2.44   3.38   15  124   18  79.0 -99.9 1017.7 -9.9 -9.999 -99.9 -99.99 -9.99
2018/09/17 02:18 EDT    2.45   3.41   15  124   18  78.8 -99.9 1017.6 -9.9 -9.999 -99.9 -99.99 -9.99
2018/09/17 02:24 EDT    2.46   3.38   16  124   18  79.0 -99.9 1017.5 -9.9 -9.999 -99.9 -99.99 -9.99
2018/09/17 02:30 EDT    2.47   3.46   15  129   19  79.0 -99.9 1017.5 -9.9 -9.999 -99.9 -99.99 -9.99
2018/09/17 02:36 EDT    2.47   3.44   16  134   21  79.0 -99.9 1017.6 -9.9 -9.999 -99.9 -99.99 -9.99
2018/09/17 02:42 EDT    2.48   3.45   19  144   24  78.8 -99.9 1017.7 -9.9 -9.999 -99.9 -99.99 -9.99
2018/09/17 02:48 EDT    2.48   3.44   17  151   20  78.4 -99.9 1017.6 -9.9 -9.999 -99.9 -99.99 -9.99
2018/09/17 02:54 EDT    2.48   3.31   16  148   21  77.7 -99.9 1017.6 -9.9 -9.999 -99.9 -99.99 -9.99
2018/09/17 03:00 EDT    2.48   3.32   16  145   20  77.5 -99.9 1017.5 -9.9 -9.999 -99.9 -99.99 -9.99
2018/09/17 03:06 EDT    2.47   3.32   17  145   20  77.4 -99.9 1017.6 -9.9 -9.999 -99.9 -99.99 -9.99
2018/09/17 03:12 EDT    2.47   3.28   16  141   21  77.4 -99.9 1017.5 -9.9 -9.999 -99.9 -99.99 -9.99
2018/09/17 03:18 EDT    2.46   3.27   14  138   19  77.2 -99.9 1017.5 -9.9 -9.999 -99.9 -99.99 -9.99
2018/09/17 03:24 EDT    2.45   3.27   16  141   19  77.2 -99.9 1017.5 -9.9 -9.999 -99.9 -99.99 -9.99
2018/09/17 03:30 EDT    2.44   3.28   16  133   18  77.0 -99.9 1017.4 -9.9 -9.999 -99.9 -99.99 -9.99
2018/09/17 03:36 EDT    2.43   3.26   14  136   17  77.2 -99.9 1017.3 -9.9 -9.999 -99.9 -99.99 -9.99
2018/09/17 03:42 EDT    2.41   3.20   16  142   21  77.7 -99.9 1017.3 -9.9 -9.999 -99.9 -99.99 -9.99
2018/09/17 03:48 EDT    2.40   3.35   17  145   21  77.9 -99.9 1017.3 -9.9 -9.999 -99.9 -99.99 -9.99
2018/09/17 03:54 EDT    2.38   3.21   17  146   21  77.5 -99.9 1017.3 -9.9 -9.999 -99.9 -99.99 -9.99
2018/09/17 04:00 EDT    2.36   3.19   17  142   20  77.2 -99.9 1017.2 -9.9 -9.999 -99.9 -99.99 -9.99
2018/09/17 04:06 EDT    2.34   3.15   16  148   21  77.4 -99.9 1017.2 -9.9 -9.999 -99.9 -99.99 -9.99
2018/09/17 04:12 EDT    2.32   3.14   17  153   20  77.4 -99.9 1017.2 -9.9 -9.999 -99.9 -99.99 -9.99
2018/09/17 04:18 EDT    2.29   3.04   15  158   20  77.7 -99.9 1017.2 -9.9 -9.999 -99.9 -99.99 -9.99
2018/09/17 04:24 EDT    2.27   3.07   16  156   19  77.9 -99.9 1017.1 -9.9 -9.999 -99.9 -99.99 -9.99
2018/09/17 04:30 EDT    2.24   2.99   16  156   21  77.7 -99.9 1017.2 -9.9 -9.999 -99.9 -99.99 -9.99
2018/09/17 04:36 EDT    2.21   2.98   17  158   20  77.7 -99.9 1017.1 -9.9 -9.999 -99.9 -99.99 -9.99
2018/09/17 04:42 EDT    2.18   2.96   18  157   21  77.7 -99.9 1017.0 -9.9 -9.999 -99.9 -99.99 -9.99
2018/09/17 04:48 EDT    2.14   2.95   16  162   22  77.9 -99.9 1017.0 -9.9 -9.999 -99.9 -99.99 -9.99
2018/09/17 04:54 EDT    2.11   2.93   18  158   20  77.9 -99.9 1016.9 -9.9 -9.999 -99.9 -99.99 -9.99
2018/09/17 05:00 EDT    2.07   2.84   16  157   21  78.1 -99.9 1016.8 -9.9 -9.999 -99.9 -99.99 -9.99
2018/09/17 05:06 EDT    2.03   2.83   17  156   20  78.1 -99.9 1016.8 -9.9 -9.999 -99.9 -99.99 -9.99
2018/09/17 05:12 EDT    1.99   2.79   14  160   17  78.1 -99.9 1016.8 -9.9 -9.999 -99.9 -99.99 -9.99
2018/09/17 05:18 EDT    1.95   2.71   15  157   19  78.1 -99.9 1016.8 -9.9 -9.999 -99.9 -99.99 -9.99
2018/09/17 05:24 EDT    1.91   2.68   15  156   17  78.3 -99.9 1016.8 -9.9 -9.999 -99.9 -99.99 -9.99
2018/09/17 05:30 EDT    1.86   2.63   14  157   17  78.4 -99.9 1016.8 -9.9 -9.999 -99.9 -99.99 -9.99
2018/09/17 05:36 EDT    1.82   2.61   14  156   17  78.6 -99.9 1016.9 -9.9 -9.999 -99.9 -99.99 -9.99
2018/09/17 05:42 EDT    1.77   2.56   15  156   19  78.8 -99.9 1016.9 -9.9 -9.999 -99.9 -99.99 -9.99
2018/09/17 05:48 EDT    1.72   2.51   15  157   18  78.8 -99.9 1017.0 -9.9 -9.999 -99.9 -99.99 -9.99
2018/09/17 05:54 EDT    1.68   2.44   13  158   18  78.8 -99.9 1017.1 -9.9 -9.999 -99.9 -99.99 -9.99
2018/09/17 06:00 EDT    1.63   2.36   14  152   17  78.8 -99.9 1017.1 -9.9 -9.999 -99.9 -99.99 -9.99
2018/09/17 06:06 EDT    1.58   2.36   14  156   19  79.0 -99.9 1017.2 -9.9 -9.999 -99.9 -99.99 -9.99
2018/09/17 06:12 EDT    1.53   2.34   15  153   17  79.0 -99.9 1017.2 -9.9 -9.999 -99.9 -99.99 -9.99
2018/09/17 06:18 EDT    1.49   2.28   14  154   18  79.0 -99.9 1017.2 -9.9 -9.999 -99.9 -99.99 -9.99
2018/09/17 06:24 EDT    1.44   2.25   15  155   19  79.0 -99.9 1017.2 -9.9 -9.999 -99.9 -99.99 -9.99
2018/09/17 06:30 EDT    1.39   2.16   17  153   19  79.0 -99.9 1017.1 -9.9 -9.999 -99.9 -99.99 -9.99
2018/09/17 06:36 EDT    1.35   2.12   15  155   19  79.0 -99.9 1017.2 -9.9 -9.999 -99.9 -99.99 -9.99
2018/09/17 06:42 EDT    1.30   2.02   15  158   19  79.2 -99.9 1017.1 -9.9 -9.999 -99.9 -99.99 -9.99
2018/09/17 06:48 EDT    1.26   2.01   16  152   19  79.0 -99.9 1017.0 -9.9 -9.999 -99.9 -99.99 -9.99
2018/09/17 06:54 EDT    1.21   1.96   17  152   19  79.2 -99.9 1017.0 -9.9 -9.999 -99.9 -99.99 -9.99
2018/09/17 07:00 EDT    1.17   1.94   15  151   18  79.2 -99.9 1017.0 -9.9 -9.999 -99.9 -99.99 -9.99
2018/09/17 07:06 EDT    1.13   1.93   15  150   19  79.2 -99.9 1017.0 -9.9 -9.999 -99.9 -99.99 -9.99
2018/09/17 07:12 EDT    1.09   1.90   16  149   19  79.2 -99.9 1017.1 -9.9 -9.999 -99.9 -99.99 -9.99
2018/09/17 07:18 EDT    1.06   1.84   15  147   19  79.2 -99.9 1017.0 -9.9 -9.999 -99.9 -99.99 -9.99
2018/09/17 07:24 EDT    1.02   1.81   16  143   19  79.2 -99.9 1017.1 -9.9 -9.999 -99.9 -99.99 -9.99
2018/09/17 07:30 EDT    0.99   1.76   16  146   19  79.2 -99.9 1017.2 -9.9 -9.999 -99.9 -99.99 -9.99
2018/09/17 07:36 EDT    0.95   1.73   16  143   18  79.0 -99.9 1017.2 -9.9 -9.999 -99.9 -99.99 -9.99
2018/09/17 07:42 EDT    0.92   1.71   16  147   19  79.0 -99.9 1017.3 -9.9 -9.999 -99.9 -99.99 -9.99
2018/09/17 07:48 EDT    0.90   1.67   13  145   17  79.0 -99.9 1017.3 -9.9 -9.999 -99.9 -99.99 -9.99
2018/09/17 07:54 EDT    0.87   1.68   14  148   18  79.2 -99.9 1017.3 -9.9 -9.999 -99.9 -99.99 -9.99
2018/09/17 08:00 EDT    0.85   1.64   14  149   17  79.2 -99.9 1017.3 -9.9 -9.999 -99.9 -99.99 -9.99
2018/09/17 08:06 EDT    0.82   1.59   14  148   17  79.2 -99.9 1017.3 -9.9 -9.999 -99.9 -99.99 -9.99
2018/09/17 08:12 EDT    0.81   1.56   14  149   17  79.2 -99.9 1017.3 -9.9 -9.999 -99.9 -99.99 -9.99
2018/09/17 08:18 EDT    0.79   1.57   15  154   18  79.2 -99.9 1017.3 -9.9 -9.999 -99.9 -99.99 -9.99
2018/09/17 08:24 EDT    0.77   1.59   15  153   17  79.2 -99.9 1017.1 -9.9 -9.999 -99.9 -99.99 -9.99
2018/09/17 08:30 EDT    0.76   1.61   16  153   19  79.2 -99.9 1017.1 -9.9 -9.999 -99.9 -99.99 -9.99
2018/09/17 08:36 EDT    0.75   1.54   16  152   19  79.3 -99.9 1017.0 -9.9 -9.999 -99.9 -99.99 -9.99
2018/09/17 08:42 EDT    0.74   1.54   15  151   18  79.3 -99.9 1016.9 -9.9 -9.999 -99.9 -99.99 -9.99
2018/09/17 08:48 EDT    0.74   1.51   16  155   19  79.3 -99.9 1016.9 -9.9 -9.999 -99.9 -99.99 -9.99
2018/09/17 08:54 EDT    0.73   1.53   16  153   18  79.2 -99.9 1016.9 -9.9 -9.999 -99.9 -99.99 -9.99
2018/09/17 09:00 EDT    0.73   1.52   14  158   19  79.3 -99.9 1016.9 -9.9 -9.999 -99.9 -99.99 -9.99
2018/09/17 09:06 EDT    0.74   1.54   17  156   20  79.5 -99.9 1016.9 -9.9 -9.999 -99.9 -99.99 -9.99
2018/09/17 09:12 EDT    0.74   1.44   17  154   20  79.7 -99.9 1016.9 -9.9 -9.999 -99.9 -99.99 -9.99
2018/09/17 09:18 EDT    0.75   1.47   17  157   20  79.9 -99.9 1016.9 -9.9 -9.999 -99.9 -99.99 -9.99
2018/09/17 09:24 EDT    0.76   1.56   16  160   20  80.1 -99.9 1016.8 -9.9 -9.999 -99.9 -99.99 -9.99
2018/09/17 09:30 EDT    0.77   1.55   16  157   19  79.9 -99.9 1016.8 -9.9 -9.999 -99.9 -99.99 -9.99
2018/09/17 09:36 EDT    0.78   1.52   17  162   20  79.9 -99.9 1016.8 -9.9 -9.999 -99.9 -99.99 -9.99
2018/09/17 09:42 EDT    0.80   1.55   17  159   19  80.2 -99.9 1016.8 -9.9 -9.999 -99.9 -99.99 -9.99
2018/09/17 09:48 EDT    0.82   1.58   16  159   19  80.4 -99.9 1016.7 -9.9 -9.999 -99.9 -99.99 -9.99
2018/09/17 09:54 EDT    0.85   1.58   17  160   21  80.2 -99.9 1016.6 -9.9 -9.999 -99.9 -99.99 -9.99
2018/09/17 10:00 EDT    0.87   1.62   17  163   21  80.2 -99.9 1016.7 -9.9 -9.999 -99.9 -99.99 -9.99
2018/09/17 10:06 EDT    0.90   1.66   18  165   21  80.2 -99.9 1016.8 -9.9 -9.999 -99.9 -99.99 -9.99
2018/09/17 10:12 EDT    0.93   1.67   18  165   23  80.2 -99.9 1016.8 -9.9 -9.999 -99.9 -99.99 -9.99
2018/09/17 10:18 EDT    0.96   1.72   17  163   21  80.2 -99.9 1016.8 -9.9 -9.999 -99.9 -99.99 -9.99
2018/09/17 10:24 EDT    0.99   1.70   18  169   22  80.8 -99.9 1016.8 -9.9 -9.999 -99.9 -99.99 -9.99
2018/09/17 10:30 EDT    1.03   1.74   18  174   22  81.1 -99.9 1016.9 -9.9 -9.999 -99.9 -99.99 -9.99
2018/09/17 10:36 EDT    1.07   1.75   17  177   23  81.1 -99.9 1017.0 -9.9 -9.999 -99.9 -99.99 -9.99
2018/09/17 10:42 EDT    1.11   1.79   14  184   19  81.1 -99.9 1017.0 -9.9 -9.999 -99.9 -99.99 -9.99
2018/09/17 10:48 EDT    1.15   1.85   17  184   20  81.5 -99.9 1017.1 -9.9 -9.999 -99.9 -99.99 -9.99
2018/09/17 10:54 EDT    1.19   1.89   17  182   19  81.5 -99.9 1017.0 -9.9 -9.999 -99.9 -99.99 -9.99
2018/09/17 11:00 EDT    1.23   1.93   16  176   21  81.5 -99.9 1017.0 -9.9 -9.999 -99.9 -99.99 -9.99
2018/09/17 11:06 EDT    1.28   1.97   16  179   19  81.3 -99.9 1017.0 -9.9 -9.999 -99.9 -99.99 -9.99
2018/09/17 11:12 EDT    1.33   2.00   17  182   20  81.3 -99.9 1017.0 -9.9 -9.999 -99.9 -99.99 -9.99
2018/09/17 11:18 EDT    1.38   2.04   14  177   22  81.3 -99.9 1016.9 -9.9 -9.999 -99.9 -99.99 -9.99
2018/09/17 11:24 EDT    1.42   2.09   15  174   18  81.3 -99.9 1016.7 -9.9 -9.999 -99.9 -99.99 -9.99
2018/09/17 11:30 EDT    1.48   2.14   15  161   19  81.3 -99.9 1016.5 -9.9 -9.999 -99.9 -99.99 -9.99
2018/09/17 11:36 EDT    1.53   2.21   16  162   19  81.1 -99.9 1016.6 -9.9 -9.999 -99.9 -99.99 -9.99
2018/09/17 11:42 EDT    1.58   2.29   14  171   19  81.1 -99.9 1016.6 -9.9 -9.999 -99.9 -99.99 -9.99
2018/09/17 11:48 EDT    1.63   2.36   15  173   18  81.1 -99.9 1016.7 -9.9 -9.999 -99.9 -99.99 -9.99
2018/09/17 11:54 EDT    1.68   2.41   13  177   16  81.1 -99.9 1016.7 -9.9 -9.999 -99.9 -99.99 -9.99
2018/09/17 12:00 EDT    1.74   2.45   12  177   17  81.1 -99.9 1016.6 -9.9 -9.999 -99.9 -99.99 -9.99
2018/09/17 12:06 EDT    1.79   2.52   14  175   17  81.1 -99.9 1016.6 -9.9 -9.999 -99.9 -99.99 -9.99
2018/09/17 12:12 EDT    1.84   2.58   12  172   19  81.1 -99.9 1016.5 -9.9 -9.999 -99.9 -99.99 -9.99
2018/09/17 12:18 EDT    1.89   2.60   13  172   16  81.0 -99.9 1016.4 -9.9 -9.999 -99.9 -99.99 -9.99
2018/09/17 12:24 EDT    1.95   2.66   15  177   19  81.0 -99.9 1016.4 -9.9 -9.999 -99.9 -99.99 -9.99
2018/09/17 12:30 EDT    2.00   2.72   16  175   20  81.1 -99.9 1016.4 -9.9 -9.999 -99.9 -99.99 -9.99
2018/09/17 12:36 EDT    2.05   2.78   13  174   18  81.0 -99.9 1016.4 -9.9 -9.999 -99.9 -99.99 -9.99
2018/09/17 12:42 EDT    2.10   2.81   13  173   18  81.0 -99.9 1016.3 -9.9 -9.999 -99.9 -99.99 -9.99
2018/09/17 12:48 EDT    2.15   2.84   14  173   17  81.0 -99.9 1016.2 -9.9 -9.999 -99.9 -99.99 -9.99
2018/09/17 12:54 EDT    2.20   2.88   15  172   17  81.0 -99.9 1016.2 -9.9 -9.999 -99.9 -99.99 -9.99
2018/09/17 13:00 EDT    2.25   2.95   15  167   18  81.0 -99.9 1016.0 -9.9 -9.999 -99.9 -99.99 -9.99
2018/09/17 13:06 EDT    2.30   3.00   16  164   19  81.0 -99.9 1015.9 -9.9 -9.999 -99.9 -99.99 -9.99
2018/09/17 13:12 EDT    2.34   3.05   16  163   19  81.0 -99.9 1015.8 -9.9 -9.999 -99.9 -99.99 -9.99
2018/09/17 13:18 EDT    2.39   3.13   15  166   18  81.0 -99.9 1015.9 -9.9 -9.999 -99.9 -99.99 -9.99
2018/09/17 13:24 EDT    2.43   3.16   14  165   18  80.6 -99.9 1015.9 -9.9 -9.999 -99.9 -99.99 -9.99
2018/09/17 13:30 EDT    2.47   3.17   17  155   19  80.2 -99.9 1015.8 -9.9 -9.999 -99.9 -99.99 -9.99
2018/09/17 13:36 EDT    2.51   3.20   16  151   20  80.4 -99.9 1015.7 -9.9 -9.999 -99.9 -99.99 -9.99
2018/09/17 13:42 EDT    2.55   3.17   17  153   21  80.4 -99.9 1015.6 -9.9 -9.999 -99.9 -99.99 -9.99
2018/09/17 13:48 EDT    2.59   3.39   18  150   21  80.4 -99.9 1015.4 -9.9 -9.999 -99.9 -99.99 -9.99
2018/09/17 13:54 EDT    2.62   3.31   17  152   20  80.2 -99.9 1015.3 -9.9 -9.999 -99.9 -99.99 -9.99
2018/09/17 14:00 EDT    2.65   3.32   17  151   21  80.2 -99.9 1015.3 -9.9 -9.999 -99.9 -99.99 -9.99
2018/09/17 14:06 EDT    2.68   3.36   17  149   21  80.2 -99.9 1015.0 -9.9 -9.999 -99.9 -99.99 -9.99
2018/09/17 14:12 EDT    2.71   3.41   16  151   21  80.2 -99.9 1014.9 -9.9 -9.999 -99.9 -99.99 -9.99
2018/09/17 14:18 EDT    2.73   3.38   17  148   19  80.2 -99.9 1014.8 -9.9 -9.999 -99.9 -99.99 -9.99
2018/09/17 14:24 EDT    2.75   3.42   16  151   19  80.2 -99.9 1014.7 -9.9 -9.999 -99.9 -99.99 -9.99
2018/09/17 14:30 EDT    2.77   3.49   17  151   20  80.2 -99.9 1014.7 -9.9 -9.999 -99.9 -99.99 -9.99
2018/09/17 14:36 EDT    2.79   3.50   17  151   22  80.2 -99.9 1014.5 -9.9 -9.999 -99.9 -99.99 -9.99
2018/09/17 14:42 EDT    2.81   3.51   17  151   21  80.4 -99.9 1014.4 -9.9 -9.999 -99.9 -99.99 -9.99
2018/09/17 14:48 EDT    2.82   3.56 -999 -999 -999 -99.9 -99.9 -999.9 -9.9 -9.999 -99.9 -99.99 -9.99
2018/09/17 14:54 EDT    2.83   3.61   16  155   19  80.6 -99.9 1014.2 -9.9 -9.999 -99.9 -99.99 -9.99
2018/09/17 15:00 EDT    2.84   3.56   13  159   19  80.8 -99.9 1014.2 -9.9 -9.999 -99.9 -99.99 -9.99
2018/09/17 15:06 EDT    2.85   3.57   18  166   20  81.7 -99.9 1014.1 -9.9 -9.999 -99.9 -99.99 -9.99
2018/09/17 15:12 EDT    2.86   3.55   16  163   20  81.7 -99.9 1014.0 -9.9 -9.999 -99.9 -99.99 -9.99
2018/09/17 15:18 EDT    2.86   3.60   17  162   20  81.3 -99.9 1013.9 -9.9 -9.999 -99.9 -99.99 -9.99
2018/09/17 15:24 EDT    2.86   3.59   16  156   19  80.8 -99.9 1013.9 -9.9 -9.999 -99.9 -99.99 -9.99
2018/09/17 15:30 EDT    2.86   3.56   16  159   20  81.0 -99.9 1013.8 -9.9 -9.999 -99.9 -99.99 -9.99
2018/09/17 15:36 EDT    2.86   3.55   15  166   19  81.5 -99.9 1013.7 -9.9 -9.999 -99.9 -99.99 -9.99
2018/09/17 15:42 EDT    2.85   3.55   16  162   19  81.5 -99.9 1013.6 -9.9 -9.999 -99.9 -99.99 -9.99
2018/09/17 15:48 EDT    2.85   3.57   15  159   20  81.0 -99.9 1013.6 -9.9 -9.999 -99.9 -99.99 -9.99
2018/09/17 15:54 EDT    2.84   3.52   16  162   20  81.1 -99.9 1013.6 -9.9 -9.999 -99.9 -99.99 -9.99
2018/09/17 16:00 EDT    2.83   3.53   16  168   18  81.3 -99.9 1013.5 -9.9 -9.999 -99.9 -99.99 -9.99
2018/09/17 16:06 EDT    2.82   3.56   16  167   19  81.5 -99.9 1013.4 -9.9 -9.999 -99.9 -99.99 -9.99
2018/09/17 16:12 EDT    2.81   3.56   16  170   20  81.7 -99.9 1013.3 -9.9 -9.999 -99.9 -99.99 -9.99
2018/09/17 16:18 EDT    2.79   3.52   17  172   19  81.7 -99.9 1013.3 -9.9 -9.999 -99.9 -99.99 -9.99
2018/09/17 16:24 EDT    2.77   3.44   14  174   18  81.7 -99.9 1013.2 -9.9 -9.999 -99.9 -99.99 -9.99
2018/09/17 16:30 EDT    2.75   3.49   15  169   17  81.7 -99.9 1013.0 -9.9 -9.999 -99.9 -99.99 -9.99
2018/09/17 16:36 EDT    2.73   3.43   14  175   17  81.7 -99.9 1013.1 -9.9 -9.999 -99.9 -99.99 -9.99
2018/09/17 16:42 EDT    2.71   3.40   14  176   18  81.5 -99.9 1013.0 -9.9 -9.999 -99.9 -99.99 -9.99
2018/09/17 16:48 EDT    2.68   3.37   12  173   17  81.3 -99.9 1012.9 -9.9 -9.999 -99.9 -99.99 -9.99
2018/09/17 16:54 EDT    2.66   3.39   14  168   18  81.3 -99.9 1012.8 -9.9 -9.999 -99.9 -99.99 -9.99
2018/09/17 17:00 EDT    2.63   3.39   15  166   17  81.3 -99.9 1012.7 -9.9 -9.999 -99.9 -99.99 -9.99
2018/09/17 17:06 EDT    2.60   3.37   14  160   19  81.5 -99.9 1012.5 -9.9 -9.999 -99.9 -99.99 -9.99
2018/09/17 17:12 EDT    2.56   3.31   14  168   17  81.5 -99.9 1012.5 -9.9 -9.999 -99.9 -99.99 -9.99
2018/09/17 17:18 EDT    2.53   3.27 -999 -999 -999 -99.9 -99.9 -999.9 -9.9 -9.999 -99.9 -99.99 -9.99
2018/09/17 17:24 EDT    2.49   3.35   15  171   18  81.9 -99.9 1012.6 -9.9 -9.999 -99.9 -99.99 -9.99
2018/09/17 17:30 EDT    2.45   3.27   15  174   18  81.9 -99.9 1012.7 -9.9 -9.999 -99.9 -99.99 -9.99
2018/09/17 17:36 EDT    2.41   3.21   15  179   19  81.7 -99.9 1012.8 -9.9 -9.999 -99.9 -99.99 -9.99
2018/09/17 17:42 EDT    2.36   3.18   15  173   19  81.7 -99.9 1012.6 -9.9 -9.999 -99.9 -99.99 -9.99
2018/09/17 17:48 EDT    2.32   3.14   17  167   20  81.7 -99.9 1012.5 -9.9 -9.999 -99.9 -99.99 -9.99
2018/09/17 17:54 EDT    2.27   3.15   17  168   21  81.7 -99.9 1012.5 -9.9 -9.999 -99.9 -99.99 -9.99
2018/09/17 18:00 EDT    2.23   3.06   17  173   20  81.7 -99.9 1012.6 -9.9 -9.999 -99.9 -99.99 -9.99
2018/09/17 18:06 EDT    2.18   3.00   15  174   19  81.9 -99.9 1012.7 -9.9 -9.999 -99.9 -99.99 -9.99
2018/09/17 18:12 EDT    2.13   3.01   16  180   19  81.9 -99.9 1012.7 -9.9 -9.999 -99.9 -99.99 -9.99
2018/09/17 18:18 EDT    2.07   2.94   15  180   19  81.9 -99.9 1012.8 -9.9 -9.999 -99.9 -99.99 -9.99
2018/09/17 18:24 EDT    2.02   2.83   15  179   18  81.9 -99.9 1012.7 -9.9 -9.999 -99.9 -99.99 -9.99
2018/09/17 18:30 EDT    1.97   2.81   16  181   19  81.9 -99.9 1012.6 -9.9 -9.999 -99.9 -99.99 -9.99
2018/09/17 18:36 EDT    1.92   2.74   17  180   19  81.7 -99.9 1012.5 -9.9 -9.999 -99.9 -99.99 -9.99
2018/09/17 18:42 EDT    1.86   2.70   17  182   20  81.7 -99.9 1012.4 -9.9 -9.999 -99.9 -99.99 -9.99
2018/09/17 18:48 EDT    1.81   2.62   17  184   22  81.7 -99.9 1012.4 -9.9 -9.999 -99.9 -99.99 -9.99
2018/09/17 18:54 EDT    1.76   2.52   19  184   22  81.7 -99.9 1012.3 -9.9 -9.999 -99.9 -99.99 -9.99
2018/09/17 19:00 EDT    1.71   2.51   19  188   23  81.7 -99.9 1012.4 -9.9 -9.999 -99.9 -99.99 -9.99
2018/09/17 19:06 EDT    1.65   2.45   18  185   24  81.5 -99.9 1012.4 -9.9 -9.999 -99.9 -99.99 -9.99
2018/09/17 19:12 EDT    1.60   2.37   19  184   22  81.5 -99.9 1012.4 -9.9 -9.999 -99.9 -99.99 -9.99
2018/09/17 19:18 EDT    1.55   2.28   17  181   24  81.3 -99.9 1012.5 -9.9 -9.999 -99.9 -99.99 -9.99
2018/09/17 19:24 EDT    1.50   2.25   16  178   21  81.3 -99.9 1012.4 -9.9 -9.999 -99.9 -99.99 -9.99
2018/09/17 19:30 EDT    1.45   2.20   16  180   19  81.1 -99.9 1012.4 -9.9 -9.999 -99.9 -99.99 -9.99
2018/09/17 19:36 EDT    1.40   2.16   13  177   16  80.8 -99.9 1012.5 -9.9 -9.999 -99.9 -99.99 -9.99
2018/09/17 19:42 EDT    1.36   2.08   14  180   17  80.8 -99.9 1012.5 -9.9 -9.999 -99.9 -99.99 -9.99
2018/09/17 19:48 EDT    1.31   2.03   14  179   17  80.8 -99.9 1012.5 -9.9 -9.999 -99.9 -99.99 -9.99
2018/09/17 19:54 EDT    1.27   2.03   13  179   17  80.8 -99.9 1012.5 -9.9 -9.999 -99.9 -99.99 -9.99
2018/09/17 20:00 EDT    1.23   1.96   16  182   19  80.8 -99.9 1012.5 -9.9 -9.999 -99.9 -99.99 -9.99
2018/09/17 20:06 EDT    1.19   1.86   15  186   20  80.8 -99.9 1012.4 -9.9 -9.999 -99.9 -99.99 -9.99
2018/09/17 20:12 EDT    1.15   1.81   17  185   22  80.8 -99.9 1012.5 -9.9 -9.999 -99.9 -99.99 -9.99
2018/09/17 20:18 EDT    1.11   1.79   17  181   21  80.8 -99.9 1012.5 -9.9 -9.999 -99.9 -99.99 -9.99
2018/09/17 20:24 EDT    1.08   1.75   17  181   21  80.6 -99.9 1012.5 -9.9 -9.999 -99.9 -99.99 -9.99
2018/09/17 20:30 EDT    1.04   1.70   17  183   20  80.6 -99.9 1012.5 -9.9 -9.999 -99.9 -99.99 -9.99
2018/09/17 20:36 EDT    1.01   1.66   18  184   20  80.6 -99.9 1012.5 -9.9 -9.999 -99.9 -99.99 -9.99
2018/09/17 20:42 EDT    0.98   1.64   16  183   20  80.4 -99.9 1012.6 -9.9 -9.999 -99.9 -99.99 -9.99
2018/09/17 20:48 EDT    0.96   1.61   15  185   19  80.4 -99.9 1012.7 -9.9 -9.999 -99.9 -99.99 -9.99
2018/09/17 20:54 EDT    0.93   1.68   15  191   20  80.4 -99.9 1012.8 -9.9 -9.999 -99.9 -99.99 -9.99
2018/09/17 21:00 EDT    0.91   1.62   16  189   19  80.2 -99.9 1013.0 -9.9 -9.999 -99.9 -99.99 -9.99
2018/09/17 21:06 EDT    0.89   1.57   17  197   21  80.2 -99.9 1013.0 -9.9 -9.999 -99.9 -99.99 -9.99
2018/09/17 21:12 EDT    0.87   1.53   16  194   19  80.2 -99.9 1013.0 -9.9 -9.999 -99.9 -99.99 -9.99
2018/09/17 21:18 EDT    0.86   1.52   18  194   21  80.2 -99.9 1013.0 -9.9 -9.999 -99.9 -99.99 -9.99
2018/09/17 21:24 EDT    0.85   1.50   16  196   19  80.1 -99.9 1013.0 -9.9 -9.999 -99.9 -99.99 -9.99
2018/09/17 21:30 EDT    0.84   1.48   18  192   21  80.1 -99.9 1013.0 -9.9 -9.999 -99.9 -99.99 -9.99
2018/09/17 21:36 EDT    0.83   1.45   17  192   21  80.1 -99.9 1013.0 -9.9 -9.999 -99.9 -99.99 -9.99
2018/09/17 21:42 EDT    0.82   1.42   19  195   22  80.1 -99.9 1013.0 -9.9 -9.999 -99.9 -99.99 -9.99
2018/09/17 21:48 EDT    0.82   1.44   19  192   24  80.1 -99.9 1012.9 -9.9 -9.999 -99.9 -99.99 -9.99
2018/09/17 21:54 EDT    0.82   1.41   18  193   22  80.1 -99.9 1012.9 -9.9 -9.999 -99.9 -99.99 -9.99
2018/09/17 22:00 EDT    0.82   1.48   17  194   22  80.1 -99.9 1012.9 -9.9 -9.999 -99.9 -99.99 -9.99
2018/09/17 22:06 EDT    0.83   1.45   17  195   21  80.1 -99.9 1012.8 -9.9 -9.999 -99.9 -99.99 -9.99
2018/09/17 22:12 EDT    0.84   1.46   18  194   22  80.1 -99.9 1012.8 -9.9 -9.999 -99.9 -99.99 -9.99
2018/09/17 22:18 EDT    0.85   1.49   17  195   22  79.9 -99.9 1012.8 -9.9 -9.999 -99.9 -99.99 -9.99
2018/09/17 22:24 EDT    0.86   1.52   17  195   23  79.9 -99.9 1012.8 -9.9 -9.999 -99.9 -99.99 -9.99
2018/09/17 22:30 EDT    0.87   1.54   18  193   24  79.9 -99.9 1012.8 -9.9 -9.999 -99.9 -99.99 -9.99
2018/09/17 22:36 EDT    0.89   1.60   18  195   23  79.9 -99.9 1012.7 -9.9 -9.999 -99.9 -99.99 -9.99
2018/09/17 22:42 EDT    0.91   1.55   19  195   23  79.9 -99.9 1012.7 -9.9 -9.999 -99.9 -99.99 -9.99
2018/09/17 22:48 EDT    0.93   1.61   20  192   24  79.9 -99.9 1012.6 -9.9 -9.999 -99.9 -99.99 -9.99
2018/09/17 22:54 EDT    0.95   1.60   18  192   24  79.9 -99.9 1012.5 -9.9 -9.999 -99.9 -99.99 -9.99
2018/09/17 23:00 EDT    0.97   1.58   18  193   22  79.7 -99.9 1012.4 -9.9 -9.999 -99.9 -99.99 -9.99
2018/09/17 23:06 EDT    1.00   1.64   20  193   24  79.9 -99.9 1012.3 -9.9 -9.999 -99.9 -99.99 -9.99
2018/09/17 23:12 EDT    1.03   1.70   19  197   23  79.7 -99.9 1012.3 -9.9 -9.999 -99.9 -99.99 -9.99
2018/09/17 23:18 EDT    1.06   1.71   20  197   26  79.9 -99.9 1012.2 -9.9 -9.999 -99.9 -99.99 -9.99
2018/09/17 23:24 EDT    1.09   1.75   18  195   22  79.9 -99.9 1012.2 -9.9 -9.999 -99.9 -99.99 -9.99
2018/09/17 23:30 EDT    1.12   1.79   19  195   23  79.9 -99.9 1012.2 -9.9 -9.999 -99.9 -99.99 -9.99
2018/09/17 23:36 EDT    1.16   1.82   18  193   21  79.7 -99.9 1012.1 -9.9 -9.999 -99.9 -99.99 -9.99
2018/09/17 23:42 EDT    1.19   1.90   20  194   22  79.7 -99.9 1012.0 -9.9 -9.999 -99.9 -99.99 -9.99
2018/09/17 23:48 EDT    1.23   1.89   17  197   23  79.7 -99.9 1012.0 -9.9 -9.999 -99.9 -99.99 -9.99
2018/09/17 23:54 EDT    1.27   1.98   20  195   24  79.9 -99.9 1011.9 -9.9 -9.999 -99.9 -99.99 -9.99
2018/09/18 00:00 EDT    1.31   1.96   16  196   22  79.7 -99.9 1011.8 -9.9 -9.999 -99.9 -99.99 -9.99
2018/09/18 00:06 EDT    1.35   2.06   18  196   22  79.7 -99.9 1011.8 -9.9 -9.999 -99.9 -99.99 -9.99
2018/09/18 00:12 EDT    1.39   2.03   17  200   22  79.7 -99.9 1011.8 -9.9 -9.999 -99.9 -99.99 -9.99
2018/09/18 00:18 EDT    1.43   2.10   18  198   21  79.7 -99.9 1011.8 -9.9 -9.999 -99.9 -99.99 -9.99
2018/09/18 00:24 EDT    1.47   2.19   20  196   24  79.7 -99.9 1011.6 -9.9 -9.999 -99.9 -99.99 -9.99
2018/09/18 00:30 EDT    1.51   2.09   19  197   22  79.7 -99.9 1011.6 -9.9 -9.999 -99.9 -99.99 -9.99
2018/09/18 00:36 EDT    1.55   2.18   20  197   23  79.5 -99.9 1011.5 -9.9 -9.999 -99.9 -99.99 -9.99
2018/09/18 00:42 EDT    1.60   2.26   19  199   25  79.7 -99.9 1011.5 -9.9 -9.999 -99.9 -99.99 -9.99
2018/09/18 00:48 EDT    1.64   2.26   18  199   23  79.5 -99.9 1011.6 -9.9 -9.999 -99.9 -99.99 -9.99
2018/09/18 00:54 EDT    1.68   2.28   18  199   25  79.5 -99.9 1011.6 -9.9 -9.999 -99.9 -99.99 -9.99
2018/09/18 01:00 EDT    1.73   2.28   18  200   24  79.5 -99.9 1011.6 -9.9 -9.999 -99.9 -99.99 -9.99
2018/09/18 01:06 EDT    1.77   2.37   17  200   20  79.5 -99.9 1011.6 -9.9 -9.999 -99.9 -99.99 -9.99
2018/09/18 01:12 EDT    1.81   2.46   18  202   23  79.5 -99.9 1011.7 -9.9 -9.999 -99.9 -99.99 -9.99
2018/09/18 01:18 EDT    1.85   2.47   18  204   22  79.5 -99.9 1011.6 -9.9 -9.999 -99.9 -99.99 -9.99
2018/09/18 01:24 EDT    1.89   2.53   19  204   22  79.5 -99.9 1011.7 -9.9 -9.999 -99.9 -99.99 -9.99
2018/09/18 01:30 EDT    1.93   2.53   19  204   24  79.5 -99.9 1011.6 -9.9 -9.999 -99.9 -99.99 -9.99
2018/09/18 01:36 EDT    1.97   2.54   18  202   21  79.5 -99.9 1011.6 -9.9 -9.999 -99.9 -99.99 -9.99
2018/09/18 01:42 EDT    2.01   2.63   18  203   21  79.3 -99.9 1011.5 -9.9 -9.999 -99.9 -99.99 -9.99
2018/09/18 01:48 EDT    2.05   2.73   17  203   21  79.3 -99.9 1011.5 -9.9 -9.999 -99.9 -99.99 -9.99
2018/09/18 01:54 EDT    2.08   2.71   17  203   23  79.3 -99.9 1011.5 -9.9 -9.999 -99.9 -99.99 -9.99
2018/09/18 02:00 EDT    2.12   2.72   17  207   20  79.3 -99.9 1011.4 -9.9 -9.999 -99.9 -99.99 -9.99
2018/09/18 02:06 EDT    2.15   2.78   17  208   21  79.3 -99.9 1011.4 -9.9 -9.999 -99.9 -99.99 -9.99
2018/09/18 02:12 EDT    2.18   2.82   17  207   22  79.3 -99.9 1011.3 -9.9 -9.999 -99.9 -99.99 -9.99
2018/09/18 02:18 EDT    2.21   2.85   17  208   21  79.3 -99.9 1011.2 -9.9 -9.999 -99.9 -99.99 -9.99
2018/09/18 02:24 EDT    2.24   2.93   17  207   21  79.3 -99.9 1011.1 -9.9 -9.999 -99.9 -99.99 -9.99
2018/09/18 02:30 EDT    2.26   2.90   17  211   20  79.3 -99.9 1011.1 -9.9 -9.999 -99.9 -99.99 -9.99
2018/09/18 02:36 EDT    2.29   2.93   17  211   23  79.3 -99.9 1011.1 -9.9 -9.999 -99.9 -99.99 -9.99
2018/09/18 02:42 EDT    2.31   2.89   17  210   21  79.3 -99.9 1011.0 -9.9 -9.999 -99.9 -99.99 -9.99
2018/09/18 02:48 EDT    2.33   3.01   15  212   19  79.3 -99.9 1010.9 -9.9 -9.999 -99.9 -99.99 -9.99
2018/09/18 02:54 EDT    2.35   2.97   15  217   19  79.3 -99.9 1010.9 -9.9 -9.999 -99.9 -99.99 -9.99
2018/09/18 03:00 EDT    2.36   2.99   19  214   24  79.3 -99.9 1010.8 -9.9 -9.999 -99.9 -99.99 -9.99
2018/09/18 03:06 EDT    2.38   3.04   19  216   23  79.3 -99.9 1010.8 -9.9 -9.999 -99.9 -99.99 -9.99
2018/09/18 03:12 EDT    2.39   2.98   18  217   24  79.3 -99.9 1010.7 -9.9 -9.999 -99.9 -99.99 -9.99
2018/09/18 03:18 EDT    2.40   2.97   19  215   23  79.3 -99.9 1010.6 -9.9 -9.999 -99.9 -99.99 -9.99
2018/09/18 03:24 EDT    2.41   3.09   18  214   23  79.5 -99.9 1010.5 -9.9 -9.999 -99.9 -99.99 -9.99
2018/09/18 03:30 EDT    2.42   3.03   20  209   25  79.5 -99.9 1010.4 -9.9 -9.999 -99.9 -99.99 -9.99
2018/09/18 03:36 EDT    2.42   3.08   17  213   23  79.5 -99.9 1010.4 -9.9 -9.999 -99.9 -99.99 -9.99
2018/09/18 03:42 EDT    2.43   3.04   19  213   22  79.3 -99.9 1010.4 -9.9 -9.999 -99.9 -99.99 -9.99
2018/09/18 03:48 EDT    2.43   3.00   18  210   22  79.3 -99.9 1010.4 -9.9 -9.999 -99.9 -99.99 -9.99
2018/09/18 03:54 EDT    2.43   3.05   18  214   22  79.3 -99.9 1010.3 -9.9 -9.999 -99.9 -99.99 -9.99
2018/09/18 04:00 EDT    2.43   3.03   17  210   21  79.3 -99.9 1010.3 -9.9 -9.999 -99.9 -99.99 -9.99
2018/09/18 04:06 EDT    2.43   3.03   18  211   23  79.3 -99.9 1010.2 -9.9 -9.999 -99.9 -99.99 -9.99
2018/09/18 04:12 EDT    2.42   3.05   16  215   20  79.3 -99.9 1010.3 -9.9 -9.999 -99.9 -99.99 -9.99
2018/09/18 04:18 EDT    2.42   3.03   16  213   21  79.3 -99.9 1010.2 -9.9 -9.999 -99.9 -99.99 -9.99
2018/09/18 04:24 EDT    2.41   3.05   18  216   21  79.3 -99.9 1010.2 -9.9 -9.999 -99.9 -99.99 -9.99
2018/09/18 04:30 EDT    2.40   3.02   17  212   20  79.3 -99.9 1010.2 -9.9 -9.999 -99.9 -99.99 -9.99
2018/09/18 04:36 EDT    2.39   2.97   17  214   21  79.3 -99.9 1010.2 -9.9 -9.999 -99.9 -99.99 -9.99
2018/09/18 04:42 EDT    2.38   2.97   17  213   22  79.3 -99.9 1010.2 -9.9 -9.999 -99.9 -99.99 -9.99
2018/09/18 04:48 EDT    2.37   2.90   18  212   21  79.3 -99.9 1010.2 -9.9 -9.999 -99.9 -99.99 -9.99
2018/09/18 04:54 EDT    2.35   2.89   17  213   20  79.3 -99.9 1010.2 -9.9 -9.999 -99.9 -99.99 -9.99
2018/09/18 05:00 EDT    2.34   2.94   16  215   22  79.3 -99.9 1010.2 -9.9 -9.999 -99.9 -99.99 -9.99
2018/09/18 05:06 EDT    2.32   2.80   15  215   20  79.3 -99.9 1010.2 -9.9 -9.999 -99.9 -99.99 -9.99
2018/09/18 05:12 EDT    2.30   2.84   17  212   21  79.5 -99.9 1010.3 -9.9 -9.999 -99.9 -99.99 -9.99
2018/09/18 05:18 EDT    2.27   2.83   17  212   19  79.3 -99.9 1010.3 -9.9 -9.999 -99.9 -99.99 -9.99
2018/09/18 05:24 EDT    2.25   2.80   15  215   19  79.3 -99.9 1010.3 -9.9 -9.999 -99.9 -99.99 -9.99
2018/09/18 05:30 EDT    2.22   2.77   15  213   20  79.5 -99.9 1010.3 -9.9 -9.999 -99.9 -99.99 -9.99
2018/09/18 05:36 EDT    2.20   2.68   15  213   20  79.5 -99.9 1010.3 -9.9 -9.999 -99.9 -99.99 -9.99
2018/09/18 05:42 EDT    2.17   2.67   16  218   21  79.5 -99.9 1010.2 -9.9 -9.999 -99.9 -99.99 -9.99
2018/09/18 05:48 EDT    2.13   2.64   16  215   19  79.5 -99.9 1010.2 -9.9 -9.999 -99.9 -99.99 -9.99
2018/09/18 05:54 EDT    2.10   2.64   15  213   21  79.5 -99.9 1010.2 -9.9 -9.999 -99.9 -99.99 -9.99
2018/09/18 06:00 EDT    2.07   2.56   14  216   20  79.5 -99.9 1010.1 -9.9 -9.999 -99.9 -99.99 -9.99
2018/09/18 06:06 EDT    2.03   2.55   15  214   19  79.7 -99.9 1010.1 -9.9 -9.999 -99.9 -99.99 -9.99
2018/09/18 06:12 EDT    1.99   2.50   15  217   19  79.7 -99.9 1010.1 -9.9 -9.999 -99.9 -99.99 -9.99
2018/09/18 06:18 EDT    1.95   2.50   15  212   22  79.7 -99.9 1010.1 -9.9 -9.999 -99.9 -99.99 -9.99
2018/09/18 06:24 EDT    1.91   2.41   14  216   18  79.7 -99.9 1010.1 -9.9 -9.999 -99.9 -99.99 -9.99
2018/09/18 06:30 EDT    1.87   2.39   13  213   16  79.7 -99.9 1010.1 -9.9 -9.999 -99.9 -99.99 -9.99
2018/09/18 06:36 EDT    1.82   2.34   14  216   17  79.7 -99.9 1010.2 -9.9 -9.999 -99.9 -99.99 -9.99
2018/09/18 06:42 EDT    1.78   2.30   14  216   17  79.7 -99.9 1010.2 -9.9 -9.999 -99.9 -99.99 -9.99
2018/09/18 06:48 EDT    1.73   2.23   12  220   20  79.7 -99.9 1010.1 -9.9 -9.999 -99.9 -99.99 -9.99
2018/09/18 06:54 EDT    1.69   2.21   12  222   17  79.7 -99.9 1010.1 -9.9 -9.999 -99.9 -99.99 -9.99
2018/09/18 07:00 EDT    1.64   2.12   13  220   19  79.9 -99.9 1010.0 -9.9 -9.999 -99.9 -99.99 -9.99
2018/09/18 07:06 EDT    1.59   2.07   15  216   19  79.9 -99.9 1009.9 -9.9 -9.999 -99.9 -99.99 -9.99
2018/09/18 07:12 EDT    1.55   2.05   18  214   20  79.9 -99.9 1009.9 -9.9 -9.999 -99.9 -99.99 -9.99
2018/09/18 07:18 EDT    1.50   2.01   15  215   20  79.9 -99.9 1009.9 -9.9 -9.999 -99.9 -99.99 -9.99
2018/09/18 07:24 EDT    1.46   1.97   16  213   20  79.9 -99.9 1010.0 -9.9 -9.999 -99.9 -99.99 -9.99
2018/09/18 07:30 EDT    1.41   1.92   17  217   20  79.9 -99.9 1010.0 -9.9 -9.999 -99.9 -99.99 -9.99
2018/09/18 07:36 EDT    1.37   1.85   15  216   19  79.9 -99.9 1010.0 -9.9 -9.999 -99.9 -99.99 -9.99
2018/09/18 07:42 EDT    1.32   1.86   15  215   19  79.9 -99.9 1010.0 -9.9 -9.999 -99.9 -99.99 -9.99
2018/09/18 07:48 EDT    1.28   1.82   14  212   18  79.7 -99.9 1010.0 -9.9 -9.999 -99.9 -99.99 -9.99
2018/09/18 07:54 EDT    1.24   1.77   14  211   17  79.9 -99.9 1009.9 -9.9 -9.999 -99.9 -99.99 -9.99
2018/09/18 08:00 EDT    1.20   1.72   13  215   18  79.9 -99.9 1009.9 -9.9 -9.999 -99.9 -99.99 -9.99
2018/09/18 08:06 EDT    1.16   1.66   15  214   18  79.9 -99.9 1009.8 -9.9 -9.999 -99.9 -99.99 -9.99
2018/09/18 08:12 EDT    1.12   1.63   14  215   18  79.9 -99.9 1009.8 -9.9 -9.999 -99.9 -99.99 -9.99
2018/09/18 08:18 EDT    1.08   1.62   14  214   17  79.9 -99.9 1009.8 -9.9 -9.999 -99.9 -99.99 -9.99
2018/09/18 08:24 EDT    1.05   1.59   14  215   18  79.9 -99.9 1009.7 -9.9 -9.999 -99.9 -99.99 -9.99
2018/09/18 08:30 EDT    1.02   1.53   14  215   17  79.9 -99.9 1009.6 -9.9 -9.999 -99.9 -99.99 -9.99
2018/09/18 08:36 EDT    0.99   1.51   15  215   17  80.1 -99.9 1009.5 -9.9 -9.999 -99.9 -99.99 -9.99
2018/09/18 08:42 EDT    0.96   1.50   14  212   17  80.1 -99.9 1009.4 -9.9 -9.999 -99.9 -99.99 -9.99
2018/09/18 08:48 EDT    0.93   1.49   14  216   18  80.1 -99.9 1009.4 -9.9 -9.999 -99.9 -99.99 -9.99
2018/09/18 08:54 EDT    0.91   1.44   15  213   18  80.2 -99.9 1009.4 -9.9 -9.999 -99.9 -99.99 -9.99
2018/09/18 09:00 EDT    0.88   1.40   14  217   17  80.4 -99.9 1009.4 -9.9 -9.999 -99.9 -99.99 -9.99
2018/09/18 09:06 EDT    0.86   1.39   15  219   21  80.4 -99.9 1009.4 -9.9 -9.999 -99.9 -99.99 -9.99
2018/09/18 09:12 EDT    0.84   1.38   15  218   19  80.6 -99.9 1009.3 -9.9 -9.999 -99.9 -99.99 -9.99
2018/09/18 09:18 EDT    0.83   1.38   13  219   19  80.6 -99.9 1009.2 -9.9 -9.999 -99.9 -99.99 -9.99
2018/09/18 09:24 EDT    0.82   1.35   14  212   18  80.8 -99.9 1009.2 -9.9 -9.999 -99.9 -99.99 -9.99
2018/09/18 09:30 EDT    0.80   1.36   15  206   18  80.8 -99.9 1009.2 -9.9 -9.999 -99.9 -99.99 -9.99
2018/09/18 09:36 EDT    0.79   1.35   13  213   17  80.8 -99.9 1009.2 -9.9 -9.999 -99.9 -99.99 -9.99
2018/09/18 09:42 EDT    0.79   1.34   11  221   18  81.0 -99.9 1009.1 -9.9 -9.999 -99.9 -99.99 -9.99
2018/09/18 09:48 EDT    0.78   1.35   12  218   16  81.0 -99.9 1009.2 -9.9 -9.999 -99.9 -99.99 -9.99
2018/09/18 09:54 EDT    0.78   1.35   14  216   17  80.8 -99.9 1009.2 -9.9 -9.999 -99.9 -99.99 -9.99
2018/09/18 10:00 EDT    0.78   1.35   12  217   15  80.8 -99.9 1009.3 -9.9 -9.999 -99.9 -99.99 -9.99
2018/09/18 10:06 EDT    0.79   1.37   12  216   16  81.1 -99.9 1009.3 -9.9 -9.999 -99.9 -99.99 -9.99
2018/09/18 10:12 EDT    0.79   1.36   13  221   16  81.5 -99.9 1009.3 -9.9 -9.999 -99.9 -99.99 -9.99
2018/09/18 10:18 EDT    0.80   1.36   14  221   17  81.7 -99.9 1009.2 -9.9 -9.999 -99.9 -99.99 -9.99
2018/09/18 10:24 EDT    0.81   1.40   13  221   17  82.0 -99.9 1009.1 -9.9 -9.999 -99.9 -99.99 -9.99
2018/09/18 10:30 EDT    0.82   1.40   14  213   17  82.2 -99.9 1009.1 -9.9 -9.999 -99.9 -99.99 -9.99
2018/09/18 10:36 EDT    0.84   1.44   16  216   19  82.4 -99.9 1009.1 -9.9 -9.999 -99.9 -99.99 -9.99
2018/09/18 10:42 EDT    0.86   1.43   14  218   19  82.6 -99.9 1009.0 -9.9 -9.999 -99.9 -99.99 -9.99
2018/09/18 10:48 EDT    0.88 -99.99 -999 -999 -999 -99.9 -99.9 -999.9 -9.9 -9.999 -99.9 -99.99 -9.99
2018/09/18 10:54 EDT    0.90 -99.99 -999 -999 -999 -99.9 -99.9 -999.9 -9.9 -9.999 -99.9 -99.99 -9.99
2018/09/18 11:00 EDT    0.92 -99.99 -999 -999 -999 -99.9 -99.9 -999.9 -9.9 -9.999 -99.9 -99.99 -9.99
2018/09/18 11:06 EDT    0.95 -99.99 -999 -999 -999 -99.9 -99.9 -999.9 -9.9 -9.999 -99.9 -99.99 -9.99

Revised: 08/08/2018
NOAA / National Ocean Service
Web site owner: Center for Operational Oceanographic Products and Services